PWSweather.com
Personal Weather Stations
Station Observations
OZIERI
Punta Idda, OzieriIT

Punta IddaOzieriIT

Lat: 40.584142, Lon: 9.007657999999992

Elevation: 1483

Station Type: Lacrosse ws2350

www.ozierimeteo.altervista.com

High Low Average
Temperature 72.7°F22.6°C 57.9°F14.4°C 64.9°F18.3°C
Dew Point 57.4°F14.1°C 47.8°F8.8°C 52.7°F11.5°C
Winds 9.8 mph 15.8 kmh Calm Calm 5.0 mph SW8.0 kmh SW
Wind Gusts 21.9 mph35.2 kmh -- 6.0 mph9.7 kmh
Humidity 86% 46% 66%
Pressure 30.11 in1019.6 mb 30.00 in1015.9 mb -
Precipitation 0.00 in0.0 mm - -
Hour Temp Dew Point Humidity Winds Wind Gusts Pressure Precip Precip Rate Daily Precip Total
12:01 AM 57.0°F13.9°C 53.2°F11.8°C 87% - N N -- 30.02 in1016.6 mb 0.00 in0.0 mm 0.00 in0.0 mm 0.00 in0.0 mm
12:03 AM 57.0°F13.9°C 53.2°F11.8°C 87% - N N -- 30.02 in1016.6 mb 0.00 in0.0 mm 0.00 in0.0 mm 0.00 in0.0 mm
12:06 AM 57.0°F13.9°C 53.2°F11.8°C 87% - N N -- 30.03 in1016.9 mb 0.00 in0.0 mm 0.00 in0.0 mm 0.00 in0.0 mm
12:08 AM 57.0°F13.9°C 53.2°F11.8°C 87% - N N -- 30.02 in1016.6 mb 0.00 in0.0 mm 0.00 in0.0 mm 0.00 in0.0 mm
12:10 AM 57.2°F14.0°C 53.4°F11.9°C 87% - N N -- 30.02 in1016.6 mb 0.00 in0.0 mm 0.00 in0.0 mm 0.00 in0.0 mm
12:12 AM 57.4°F14.1°C 53.6°F12.0°C 87% - N N -- 30.03 in1016.9 mb 0.00 in0.0 mm 0.00 in0.0 mm 0.00 in0.0 mm
12:14 AM 57.4°F14.1°C 53.6°F12.0°C 87% - N N -- 30.03 in1016.9 mb 0.00 in0.0 mm 0.00 in0.0 mm 0.00 in0.0 mm
12:16 AM 57.4°F14.1°C 53.6°F12.0°C 87% - N N -- 30.03 in1016.9 mb 0.00 in0.0 mm 0.00 in0.0 mm 0.00 in0.0 mm
12:18 AM 57.6°F14.2°C 53.8°F12.1°C 87% - N N -- 30.02 in1016.6 mb 0.00 in0.0 mm 0.00 in0.0 mm 0.00 in0.0 mm
12:20 AM 57.7°F14.3°C 54.0°F12.2°C 87% - N N -- 30.03 in1016.9 mb 0.00 in0.0 mm 0.00 in0.0 mm 0.00 in0.0 mm
12:23 AM 57.9°F14.4°C 54.1°F12.3°C 87% - N N -- 30.03 in1016.9 mb 0.00 in0.0 mm 0.00 in0.0 mm 0.00 in0.0 mm
12:25 AM 58.1°F14.5°C 54.0°F12.2°C 86% - N N -- 30.02 in1016.6 mb 0.00 in0.0 mm 0.00 in0.0 mm 0.00 in0.0 mm
12:27 AM 58.1°F14.5°C 54.0°F12.2°C 86% - N N -- 30.03 in1016.9 mb 0.00 in0.0 mm 0.00 in0.0 mm 0.00 in0.0 mm
12:29 AM 58.3°F14.6°C 54.1°F12.3°C 86% - N N -- 30.03 in1016.9 mb 0.00 in0.0 mm 0.00 in0.0 mm 0.00 in0.0 mm
12:31 AM 58.3°F14.6°C 54.1°F12.3°C 86% - N N -- 30.03 in1016.9 mb 0.00 in0.0 mm 0.00 in0.0 mm 0.00 in0.0 mm
12:34 AM 58.3°F14.6°C 54.1°F12.3°C 86% - N N -- 30.02 in1016.6 mb 0.00 in0.0 mm 0.00 in0.0 mm 0.00 in0.0 mm
12:36 AM 58.3°F14.6°C 54.1°F12.3°C 86% - N N -- 30.03 in1016.9 mb 0.00 in0.0 mm 0.00 in0.0 mm 0.00 in0.0 mm
12:38 AM 58.5°F14.7°C 54.3°F12.4°C 86% - N N -- 30.02 in1016.6 mb 0.00 in0.0 mm 0.00 in0.0 mm 0.00 in0.0 mm
12:40 AM 58.6°F14.8°C 54.5°F12.5°C 86% - N N -- 30.02 in1016.6 mb 0.00 in0.0 mm 0.00 in0.0 mm 0.00 in0.0 mm
12:42 AM 58.6°F14.8°C 54.1°F12.3°C 85% - N N -- 30.02 in1016.6 mb 0.00 in0.0 mm 0.00 in0.0 mm 0.00 in0.0 mm
12:45 AM 58.8°F14.9°C 54.3°F12.4°C 85% - N N -- 30.02 in1016.6 mb 0.00 in0.0 mm 0.00 in0.0 mm 0.00 in0.0 mm
12:47 AM 58.8°F14.9°C 54.3°F12.4°C 85% - N N -- 30.02 in1016.6 mb 0.00 in0.0 mm 0.00 in0.0 mm 0.00 in0.0 mm
12:49 AM 58.8°F14.9°C 54.3°F12.4°C 85% - N N -- 30.02 in1016.6 mb 0.00 in0.0 mm 0.00 in0.0 mm 0.00 in0.0 mm
12:51 AM 58.8°F14.9°C 54.3°F12.4°C 85% - N N -- 30.02 in1016.6 mb 0.00 in0.0 mm 0.00 in0.0 mm 0.00 in0.0 mm
12:54 AM 58.8°F14.9°C 54.3°F12.4°C 85% - N N -- 30.01 in1016.3 mb 0.00 in0.0 mm 0.00 in0.0 mm 0.00 in0.0 mm
12:56 AM 58.8°F14.9°C 54.3°F12.4°C 85% - N N -- 30.01 in1016.3 mb 0.00 in0.0 mm 0.00 in0.0 mm 0.00 in0.0 mm
12:58 AM 58.8°F14.9°C 54.3°F12.4°C 85% - N N -- 30.01 in1016.3 mb 0.00 in0.0 mm 0.00 in0.0 mm 0.00 in0.0 mm
01:00 AM 58.8°F14.9°C 54.3°F12.4°C 85% - N N -- 30.01 in1016.3 mb 0.00 in0.0 mm 0.00 in0.0 mm 0.00 in0.0 mm
01:02 AM 58.8°F14.9°C 54.3°F12.4°C 85% - N N -- 30.01 in1016.3 mb 0.00 in0.0 mm 0.00 in0.0 mm 0.00 in0.0 mm
01:05 AM 58.8°F14.9°C 54.3°F12.4°C 85% - N N -- 30.01 in1016.3 mb 0.00 in0.0 mm 0.00 in0.0 mm 0.00 in0.0 mm
01:07 AM 58.8°F14.9°C 54.3°F12.4°C 85% - N N -- 30.02 in1016.6 mb 0.00 in0.0 mm 0.00 in0.0 mm 0.00 in0.0 mm
01:09 AM 58.8°F14.9°C 54.3°F12.4°C 85% - N N -- 30.01 in1016.3 mb 0.00 in0.0 mm 0.00 in0.0 mm 0.00 in0.0 mm
01:11 AM 59.0°F15.0°C 54.5°F12.5°C 85% - N N -- 30.01 in1016.3 mb 0.00 in0.0 mm 0.00 in0.0 mm 0.00 in0.0 mm
01:13 AM 59.0°F15.0°C 54.5°F12.5°C 85% - N N -- 30.01 in1016.3 mb 0.00 in0.0 mm 0.00 in0.0 mm 0.00 in0.0 mm
01:16 AM 59.0°F15.0°C 54.5°F12.5°C 85% - N N -- 30.01 in1016.3 mb 0.00 in0.0 mm 0.00 in0.0 mm 0.00 in0.0 mm
01:18 AM 59.2°F15.1°C 54.7°F12.6°C 85% - N N -- 30.01 in1016.3 mb 0.00 in0.0 mm 0.00 in0.0 mm 0.00 in0.0 mm
01:20 AM 59.2°F15.1°C 54.7°F12.6°C 85% - N N -- 30.01 in1016.3 mb 0.00 in0.0 mm 0.00 in0.0 mm 0.00 in0.0 mm
01:22 AM 59.2°F15.1°C 54.7°F12.6°C 85% - N N -- 30.01 in1016.3 mb 0.00 in0.0 mm 0.00 in0.0 mm 0.00 in0.0 mm
01:24 AM 59.2°F15.1°C 54.7°F12.6°C 85% - N N -- 30.01 in1016.3 mb 0.00 in0.0 mm 0.00 in0.0 mm 0.00 in0.0 mm
01:27 AM 59.2°F15.1°C 54.7°F12.6°C 85% - N N -- 30.01 in1016.3 mb 0.00 in0.0 mm 0.00 in0.0 mm 0.00 in0.0 mm
01:29 AM 59.2°F15.1°C 54.7°F12.6°C 85% - N N -- 30.01 in1016.3 mb 0.00 in0.0 mm 0.00 in0.0 mm 0.00 in0.0 mm
01:31 AM 59.2°F15.1°C 54.7°F12.6°C 85% - N N -- 30.01 in1016.3 mb 0.00 in0.0 mm 0.00 in0.0 mm 0.00 in0.0 mm
01:33 AM 59.2°F15.1°C 54.7°F12.6°C 85% - N N -- 30.01 in1016.3 mb 0.00 in0.0 mm 0.00 in0.0 mm 0.00 in0.0 mm
01:35 AM 59.2°F15.1°C 54.7°F12.6°C 85% - N N -- 30.00 in1015.9 mb 0.00 in0.0 mm 0.00 in0.0 mm 0.00 in0.0 mm
01:38 AM 59.2°F15.1°C 54.7°F12.6°C 85% - N N -- 30.01 in1016.3 mb 0.00 in0.0 mm 0.00 in0.0 mm 0.00 in0.0 mm
01:40 AM 59.0°F15.0°C 54.5°F12.5°C 85% - N N -- 30.01 in1016.3 mb 0.00 in0.0 mm 0.00 in0.0 mm 0.00 in0.0 mm
01:42 AM 59.0°F15.0°C 54.5°F12.5°C 85% - N N -- 30.01 in1016.3 mb 0.00 in0.0 mm 0.00 in0.0 mm 0.00 in0.0 mm
01:44 AM 59.2°F15.1°C 54.7°F12.6°C 85% - N N -- 30.01 in1016.3 mb 0.00 in0.0 mm 0.00 in0.0 mm 0.00 in0.0 mm
01:46 AM 59.2°F15.1°C 54.7°F12.6°C 85% - N N -- 30.01 in1016.3 mb 0.00 in0.0 mm 0.00 in0.0 mm 0.00 in0.0 mm
01:48 AM 59.4°F15.2°C 54.9°F12.7°C 85% - N N -- 30.00 in1015.9 mb 0.00 in0.0 mm 0.00 in0.0 mm 0.00 in0.0 mm
01:51 AM 59.4°F15.2°C 54.9°F12.7°C 85% - N N -- 30.01 in1016.3 mb 0.00 in0.0 mm 0.00 in0.0 mm 0.00 in0.0 mm
01:53 AM 59.4°F15.2°C 54.9°F12.7°C 85% - N N -- 30.01 in1016.3 mb 0.00 in0.0 mm 0.00 in0.0 mm 0.00 in0.0 mm
01:55 AM 59.4°F15.2°C 54.9°F12.7°C 85% - N N -- 30.01 in1016.3 mb 0.00 in0.0 mm 0.00 in0.0 mm 0.00 in0.0 mm
01:57 AM 59.4°F15.2°C 54.9°F12.7°C 85% - N N -- 30.01 in1016.3 mb 0.00 in0.0 mm 0.00 in0.0 mm 0.00 in0.0 mm
01:59 AM 59.4°F15.2°C 54.9°F12.7°C 85% - N N -- 30.01 in1016.3 mb 0.00 in0.0 mm 0.00 in0.0 mm 0.00 in0.0 mm
02:07 AM 59.4°F15.2°C 54.9°F12.7°C 85% - N N -- 30.01 in1016.3 mb 0.00 in0.0 mm 0.00 in0.0 mm 0.00 in0.0 mm
02:09 AM 59.4°F15.2°C 54.9°F12.7°C 85% - N N -- 30.01 in1016.3 mb 0.00 in0.0 mm 0.00 in0.0 mm 0.00 in0.0 mm
02:11 AM 59.4°F15.2°C 54.9°F12.7°C 85% - N N -- 30.01 in1016.3 mb 0.00 in0.0 mm 0.00 in0.0 mm 0.00 in0.0 mm
02:13 AM 59.4°F15.2°C 54.9°F12.7°C 85% - N N -- 30.01 in1016.3 mb 0.00 in0.0 mm 0.00 in0.0 mm 0.00 in0.0 mm
02:15 AM 59.2°F15.1°C 54.7°F12.6°C 85% - N N -- 30.01 in1016.3 mb 0.00 in0.0 mm 0.00 in0.0 mm 0.00 in0.0 mm
02:18 AM 59.2°F15.1°C 54.7°F12.6°C 85% - N N -- 30.01 in1016.3 mb 0.00 in0.0 mm 0.00 in0.0 mm 0.00 in0.0 mm
02:20 AM 59.2°F15.1°C 54.7°F12.6°C 85% - N N -- 30.01 in1016.3 mb 0.00 in0.0 mm 0.00 in0.0 mm 0.00 in0.0 mm
02:22 AM 59.2°F15.1°C 54.7°F12.6°C 85% - N N -- 30.01 in1016.3 mb 0.00 in0.0 mm 0.00 in0.0 mm 0.00 in0.0 mm
02:24 AM 59.2°F15.1°C 54.7°F12.6°C 85% - N N -- 30.01 in1016.3 mb 0.00 in0.0 mm 0.00 in0.0 mm 0.00 in0.0 mm
02:27 AM 59.2°F15.1°C 54.7°F12.6°C 85% - N N -- 30.01 in1016.3 mb 0.00 in0.0 mm 0.00 in0.0 mm 0.00 in0.0 mm
02:29 AM 59.2°F15.1°C 54.7°F12.6°C 85% - N N -- 30.01 in1016.3 mb 0.00 in0.0 mm 0.00 in0.0 mm 0.00 in0.0 mm
02:31 AM 59.2°F15.1°C 54.7°F12.6°C 85% - N N -- 30.01 in1016.3 mb 0.00 in0.0 mm 0.00 in0.0 mm 0.00 in0.0 mm
02:33 AM 59.4°F15.2°C 54.9°F12.7°C 85% - N N -- 30.01 in1016.3 mb 0.00 in0.0 mm 0.00 in0.0 mm 0.00 in0.0 mm
02:36 AM 59.4°F15.2°C 54.9°F12.7°C 85% - N N -- 30.01 in1016.3 mb 0.00 in0.0 mm 0.00 in0.0 mm 0.00 in0.0 mm
02:38 AM 59.4°F15.2°C 54.9°F12.7°C 85% - N N -- 30.01 in1016.3 mb 0.00 in0.0 mm 0.00 in0.0 mm 0.00 in0.0 mm
02:40 AM 59.4°F15.2°C 54.9°F12.7°C 85% - N N -- 30.01 in1016.3 mb 0.00 in0.0 mm 0.00 in0.0 mm 0.00 in0.0 mm
02:42 AM 59.4°F15.2°C 54.9°F12.7°C 85% - N N -- 30.01 in1016.3 mb 0.00 in0.0 mm 0.00 in0.0 mm 0.00 in0.0 mm
02:44 AM 59.5°F15.3°C 55.0°F12.8°C 85% - N N -- 30.01 in1016.3 mb 0.00 in0.0 mm 0.00 in0.0 mm 0.00 in0.0 mm
02:47 AM 59.4°F15.2°C 54.9°F12.7°C 85% - N N -- 30.01 in1016.3 mb 0.00 in0.0 mm 0.00 in0.0 mm 0.00 in0.0 mm
02:49 AM 59.4°F15.2°C 54.9°F12.7°C 85% - N N -- 30.01 in1016.3 mb 0.00 in0.0 mm 0.00 in0.0 mm 0.00 in0.0 mm
02:51 AM 59.2°F15.1°C 54.7°F12.6°C 85% - N N -- 30.02 in1016.6 mb 0.00 in0.0 mm 0.00 in0.0 mm 0.00 in0.0 mm
02:53 AM 59.2°F15.1°C 54.7°F12.6°C 85% - N N -- 30.01 in1016.3 mb 0.00 in0.0 mm 0.00 in0.0 mm 0.00 in0.0 mm
02:55 AM 58.8°F14.9°C 54.3°F12.4°C 85% - N N -- 30.01 in1016.3 mb 0.00 in0.0 mm 0.00 in0.0 mm 0.00 in0.0 mm
02:58 AM 58.8°F14.9°C 54.3°F12.4°C 85% - N N -- 30.01 in1016.3 mb 0.00 in0.0 mm 0.00 in0.0 mm 0.00 in0.0 mm
03:00 AM 58.6°F14.8°C 54.1°F12.3°C 85% - N N -- 30.01 in1016.3 mb 0.00 in0.0 mm 0.00 in0.0 mm 0.00 in0.0 mm
03:02 AM 58.6°F14.8°C 54.1°F12.3°C 85% - N N -- 30.01 in1016.3 mb 0.00 in0.0 mm 0.00 in0.0 mm 0.00 in0.0 mm
03:04 AM 58.6°F14.8°C 54.1°F12.3°C 85% - N N -- 30.01 in1016.3 mb 0.00 in0.0 mm 0.00 in0.0 mm 0.00 in0.0 mm
03:07 AM 58.6°F14.8°C 54.1°F12.3°C 85% - N N -- 30.01 in1016.3 mb 0.00 in0.0 mm 0.00 in0.0 mm 0.00 in0.0 mm
03:09 AM 58.6°F14.8°C 54.1°F12.3°C 85% - N N -- 30.01 in1016.3 mb 0.00 in0.0 mm 0.00 in0.0 mm 0.00 in0.0 mm
03:11 AM 58.6°F14.8°C 54.1°F12.3°C 85% - N N -- 30.01 in1016.3 mb 0.00 in0.0 mm 0.00 in0.0 mm 0.00 in0.0 mm
03:13 AM 58.6°F14.8°C 54.1°F12.3°C 85% - N N -- 30.01 in1016.3 mb 0.00 in0.0 mm 0.00 in0.0 mm 0.00 in0.0 mm
03:16 AM 58.6°F14.8°C 54.1°F12.3°C 85% - N N -- 30.01 in1016.3 mb 0.00 in0.0 mm 0.00 in0.0 mm 0.00 in0.0 mm
03:18 AM 58.6°F14.8°C 54.1°F12.3°C 85% - N N -- 30.01 in1016.3 mb 0.00 in0.0 mm 0.00 in0.0 mm 0.00 in0.0 mm
03:20 AM 58.6°F14.8°C 54.1°F12.3°C 85% - N N -- 30.02 in1016.6 mb 0.00 in0.0 mm 0.00 in0.0 mm 0.00 in0.0 mm
03:22 AM 58.6°F14.8°C 54.1°F12.3°C 85% - N N -- 30.02 in1016.6 mb 0.00 in0.0 mm 0.00 in0.0 mm 0.00 in0.0 mm
03:25 AM 58.6°F14.8°C 54.1°F12.3°C 85% - N N -- 30.01 in1016.3 mb 0.00 in0.0 mm 0.00 in0.0 mm 0.00 in0.0 mm
03:27 AM 58.6°F14.8°C 54.1°F12.3°C 85% - N N -- 30.01 in1016.3 mb 0.00 in0.0 mm 0.00 in0.0 mm 0.00 in0.0 mm
03:29 AM 58.6°F14.8°C 54.1°F12.3°C 85% - N N -- 30.02 in1016.6 mb 0.00 in0.0 mm 0.00 in0.0 mm 0.00 in0.0 mm
03:31 AM 58.5°F14.7°C 54.0°F12.2°C 85% - N N -- 30.02 in1016.6 mb 0.00 in0.0 mm 0.00 in0.0 mm 0.00 in0.0 mm
03:33 AM 58.5°F14.7°C 54.0°F12.2°C 85% - N N -- 30.01 in1016.3 mb 0.00 in0.0 mm 0.00 in0.0 mm 0.00 in0.0 mm
03:35 AM 58.3°F14.6°C 53.8°F12.1°C 85% - N N -- 30.01 in1016.3 mb 0.00 in0.0 mm 0.00 in0.0 mm 0.00 in0.0 mm
03:37 AM 58.3°F14.6°C 54.1°F12.3°C 86% - N N -- 30.02 in1016.6 mb 0.00 in0.0 mm 0.00 in0.0 mm 0.00 in0.0 mm
03:40 AM 58.3°F14.6°C 54.1°F12.3°C 86% - N N -- 30.02 in1016.6 mb 0.00 in0.0 mm 0.00 in0.0 mm 0.00 in0.0 mm
03:42 AM 58.3°F14.6°C 54.1°F12.3°C 86% - N N -- 30.02 in1016.6 mb 0.00 in0.0 mm 0.00 in0.0 mm 0.00 in0.0 mm
03:44 AM 58.1°F14.5°C 54.0°F12.2°C 86% - N N -- 30.02 in1016.6 mb 0.00 in0.0 mm 0.00 in0.0 mm 0.00 in0.0 mm
03:46 AM 58.1°F14.5°C 54.0°F12.2°C 86% - N N -- 30.02 in1016.6 mb 0.00 in0.0 mm 0.00 in0.0 mm 0.00 in0.0 mm
03:49 AM 58.1°F14.5°C 54.0°F12.2°C 86% - N N -- 30.02 in1016.6 mb 0.00 in0.0 mm 0.00 in0.0 mm 0.00 in0.0 mm
03:51 AM 58.1°F14.5°C 54.0°F12.2°C 86% - N N -- 30.02 in1016.6 mb 0.00 in0.0 mm 0.00 in0.0 mm 0.00 in0.0 mm
03:53 AM 58.1°F14.5°C 54.0°F12.2°C 86% - N N -- 30.01 in1016.3 mb 0.00 in0.0 mm 0.00 in0.0 mm 0.00 in0.0 mm
03:55 AM 58.1°F14.5°C 54.0°F12.2°C 86% - N N -- 30.02 in1016.6 mb 0.00 in0.0 mm 0.00 in0.0 mm 0.00 in0.0 mm
03:58 AM 58.3°F14.6°C 54.1°F12.3°C 86% - N N -- 30.02 in1016.6 mb 0.00 in0.0 mm 0.00 in0.0 mm 0.00 in0.0 mm
04:00 AM 58.3°F14.6°C 54.1°F12.3°C 86% - N N -- 30.02 in1016.6 mb 0.00 in0.0 mm 0.00 in0.0 mm 0.00 in0.0 mm
04:02 AM 58.3°F14.6°C 54.1°F12.3°C 86% - N N -- 30.02 in1016.6 mb 0.00 in0.0 mm 0.00 in0.0 mm 0.00 in0.0 mm
04:04 AM 58.1°F14.5°C 54.0°F12.2°C 86% - N N -- 30.02 in1016.6 mb 0.00 in0.0 mm 0.00 in0.0 mm 0.00 in0.0 mm
04:06 AM 58.1°F14.5°C 54.0°F12.2°C 86% - N N -- 30.02 in1016.6 mb 0.00 in0.0 mm 0.00 in0.0 mm 0.00 in0.0 mm
04:09 AM 58.1°F14.5°C 54.0°F12.2°C 86% - N N -- 30.02 in1016.6 mb 0.00 in0.0 mm 0.00 in0.0 mm 0.00 in0.0 mm
04:11 AM 58.1°F14.5°C 54.0°F12.2°C 86% - N N -- 30.02 in1016.6 mb 0.00 in0.0 mm 0.00 in0.0 mm 0.00 in0.0 mm
04:13 AM 57.9°F14.4°C 53.8°F12.1°C 86% - N N -- 30.02 in1016.6 mb 0.00 in0.0 mm 0.00 in0.0 mm 0.00 in0.0 mm
04:15 AM 57.9°F14.4°C 53.8°F12.1°C 86% - N N -- 30.02 in1016.6 mb 0.00 in0.0 mm 0.00 in0.0 mm 0.00 in0.0 mm
04:17 AM 57.9°F14.4°C 53.8°F12.1°C 86% - N N -- 30.02 in1016.6 mb 0.00 in0.0 mm 0.00 in0.0 mm 0.00 in0.0 mm
04:19 AM 57.9°F14.4°C 53.8°F12.1°C 86% - N N -- 30.02 in1016.6 mb 0.00 in0.0 mm 0.00 in0.0 mm 0.00 in0.0 mm
04:22 AM 57.9°F14.4°C 53.8°F12.1°C 86% - N N -- 30.02 in1016.6 mb 0.00 in0.0 mm 0.00 in0.0 mm 0.00 in0.0 mm
04:24 AM 58.1°F14.5°C 54.0°F12.2°C 86% - N N -- 30.02 in1016.6 mb 0.00 in0.0 mm 0.00 in0.0 mm 0.00 in0.0 mm
04:26 AM 58.1°F14.5°C 54.0°F12.2°C 86% - N N -- 30.02 in1016.6 mb 0.00 in0.0 mm 0.00 in0.0 mm 0.00 in0.0 mm
04:28 AM 58.1°F14.5°C 54.0°F12.2°C 86% - N N -- 30.02 in1016.6 mb 0.00 in0.0 mm 0.00 in0.0 mm 0.00 in0.0 mm
04:30 AM 58.1°F14.5°C 54.0°F12.2°C 86% - N N -- 30.02 in1016.6 mb 0.00 in0.0 mm 0.00 in0.0 mm 0.00 in0.0 mm
04:33 AM 58.1°F14.5°C 54.0°F12.2°C 86% - N N -- 30.01 in1016.3 mb 0.00 in0.0 mm 0.00 in0.0 mm 0.00 in0.0 mm
04:35 AM 58.3°F14.6°C 54.1°F12.3°C 86% - N N -- 30.02 in1016.6 mb 0.00 in0.0 mm 0.00 in0.0 mm 0.00 in0.0 mm
04:37 AM 58.3°F14.6°C 54.1°F12.3°C 86% - N N -- 30.02 in1016.6 mb 0.00 in0.0 mm 0.00 in0.0 mm 0.00 in0.0 mm
04:39 AM 58.3°F14.6°C 54.1°F12.3°C 86% - N N -- 30.02 in1016.6 mb 0.00 in0.0 mm 0.00 in0.0 mm 0.00 in0.0 mm
04:41 AM 58.1°F14.5°C 54.0°F12.2°C 86% - N N -- 30.02 in1016.6 mb 0.00 in0.0 mm 0.00 in0.0 mm 0.00 in0.0 mm
04:44 AM 58.1°F14.5°C 54.0°F12.2°C 86% - N N -- 30.02 in1016.6 mb 0.00 in0.0 mm 0.00 in0.0 mm 0.00 in0.0 mm
04:46 AM 58.1°F14.5°C 54.0°F12.2°C 86% - N N -- 30.02 in1016.6 mb 0.00 in0.0 mm 0.00 in0.0 mm 0.00 in0.0 mm
04:48 AM 58.1°F14.5°C 54.0°F12.2°C 86% - N N -- 30.02 in1016.6 mb 0.00 in0.0 mm 0.00 in0.0 mm 0.00 in0.0 mm
04:50 AM 58.1°F14.5°C 54.0°F12.2°C 86% - N N -- 30.02 in1016.6 mb 0.00 in0.0 mm 0.00 in0.0 mm 0.00 in0.0 mm
04:52 AM 57.9°F14.4°C 53.8°F12.1°C 86% - N N -- 30.02 in1016.6 mb 0.00 in0.0 mm 0.00 in0.0 mm 0.00 in0.0 mm
04:54 AM 57.9°F14.4°C 53.8°F12.1°C 86% - N N -- 30.01 in1016.3 mb 0.00 in0.0 mm 0.00 in0.0 mm 0.00 in0.0 mm
04:57 AM 57.9°F14.4°C 53.8°F12.1°C 86% - N N -- 30.02 in1016.6 mb 0.00 in0.0 mm 0.00 in0.0 mm 0.00 in0.0 mm
04:59 AM 57.9°F14.4°C 53.8°F12.1°C 86% - N N -- 30.02 in1016.6 mb 0.00 in0.0 mm 0.00 in0.0 mm 0.00 in0.0 mm
05:01 AM 57.9°F14.4°C 53.8°F12.1°C 86% - N N -- 30.02 in1016.6 mb 0.00 in0.0 mm 0.00 in0.0 mm 0.00 in0.0 mm
05:03 AM 57.9°F14.4°C 53.8°F12.1°C 86% - N N -- 30.02 in1016.6 mb 0.00 in0.0 mm 0.00 in0.0 mm 0.00 in0.0 mm
05:05 AM 57.9°F14.4°C 53.8°F12.1°C 86% - N N -- 30.02 in1016.6 mb 0.00 in0.0 mm 0.00 in0.0 mm 0.00 in0.0 mm
05:08 AM 58.1°F14.5°C 54.0°F12.2°C 86% - N N -- 30.02 in1016.6 mb 0.00 in0.0 mm 0.00 in0.0 mm 0.00 in0.0 mm
05:10 AM 58.1°F14.5°C 54.0°F12.2°C 86% - N N -- 30.02 in1016.6 mb 0.00 in0.0 mm 0.00 in0.0 mm 0.00 in0.0 mm
05:12 AM 58.1°F14.5°C 54.0°F12.2°C 86% - N N -- 30.02 in1016.6 mb 0.00 in0.0 mm 0.00 in0.0 mm 0.00 in0.0 mm
05:14 AM 58.3°F14.6°C 54.1°F12.3°C 86% - N N -- 30.02 in1016.6 mb 0.00 in0.0 mm 0.00 in0.0 mm 0.00 in0.0 mm
05:17 AM 58.3°F14.6°C 54.1°F12.3°C 86% - N N -- 30.02 in1016.6 mb 0.00 in0.0 mm 0.00 in0.0 mm 0.00 in0.0 mm
05:19 AM 58.3°F14.6°C 54.1°F12.3°C 86% - N N -- 30.02 in1016.6 mb 0.00 in0.0 mm 0.00 in0.0 mm 0.00 in0.0 mm
05:21 AM 58.3°F14.6°C 54.1°F12.3°C 86% - N N -- 30.02 in1016.6 mb 0.00 in0.0 mm 0.00 in0.0 mm 0.00 in0.0 mm
05:23 AM 58.3°F14.6°C 54.1°F12.3°C 86% - N N -- 30.02 in1016.6 mb 0.00 in0.0 mm 0.00 in0.0 mm 0.00 in0.0 mm
05:25 AM 58.5°F14.7°C 54.3°F12.4°C 86% - N N -- 30.02 in1016.6 mb 0.00 in0.0 mm 0.00 in0.0 mm 0.00 in0.0 mm
05:28 AM 58.5°F14.7°C 54.0°F12.2°C 85% - N N -- 30.02 in1016.6 mb 0.00 in0.0 mm 0.00 in0.0 mm 0.00 in0.0 mm
05:30 AM 58.6°F14.8°C 54.1°F12.3°C 85% - N N -- 30.02 in1016.6 mb 0.00 in0.0 mm 0.00 in0.0 mm 0.00 in0.0 mm
05:32 AM 58.6°F14.8°C 54.1°F12.3°C 85% - N N -- 30.02 in1016.6 mb 0.00 in0.0 mm 0.00 in0.0 mm 0.00 in0.0 mm
05:34 AM 58.8°F14.9°C 54.3°F12.4°C 85% - N N -- 30.02 in1016.6 mb 0.00 in0.0 mm 0.00 in0.0 mm 0.00 in0.0 mm
05:37 AM 58.8°F14.9°C 54.3°F12.4°C 85% - N N -- 30.03 in1016.9 mb 0.00 in0.0 mm 0.00 in0.0 mm 0.00 in0.0 mm
05:39 AM 59.2°F15.1°C 54.7°F12.6°C 85% - N N -- 30.03 in1016.9 mb 0.00 in0.0 mm 0.00 in0.0 mm 0.00 in0.0 mm
05:41 AM 59.2°F15.1°C 54.7°F12.6°C 85% - N N -- 30.02 in1016.6 mb 0.00 in0.0 mm 0.00 in0.0 mm 0.00 in0.0 mm
05:43 AM 59.5°F15.3°C 55.0°F12.8°C 85% - N N -- 30.02 in1016.6 mb 0.00 in0.0 mm 0.00 in0.0 mm 0.00 in0.0 mm
05:46 AM 59.5°F15.3°C 55.0°F12.8°C 85% - N N -- 30.02 in1016.6 mb 0.00 in0.0 mm 0.00 in0.0 mm 0.00 in0.0 mm
05:48 AM 59.9°F15.5°C 55.4°F13.0°C 85% - N N -- 30.02 in1016.6 mb 0.00 in0.0 mm 0.00 in0.0 mm 0.00 in0.0 mm
05:50 AM 60.1°F15.6°C 55.2°F12.9°C 84% - N N -- 30.02 in1016.6 mb 0.00 in0.0 mm 0.00 in0.0 mm 0.00 in0.0 mm
05:52 AM 60.1°F15.6°C 55.2°F12.9°C 84% - N N -- 30.02 in1016.6 mb 0.00 in0.0 mm 0.00 in0.0 mm 0.00 in0.0 mm
05:55 AM 60.4°F15.8°C 55.6°F13.1°C 84% - N N -- 30.02 in1016.6 mb 0.00 in0.0 mm 0.00 in0.0 mm 0.00 in0.0 mm
05:57 AM 60.6°F15.9°C 55.8°F13.2°C 84% - N N -- 30.03 in1016.9 mb 0.00 in0.0 mm 0.00 in0.0 mm 0.00 in0.0 mm
05:59 AM 60.6°F15.9°C 55.4°F13.0°C 83% - N N -- 30.02 in1016.6 mb 0.00 in0.0 mm 0.00 in0.0 mm 0.00 in0.0 mm
06:01 AM 61.0°F16.1°C 55.8°F13.2°C 83% - N N -- 30.03 in1016.9 mb 0.00 in0.0 mm 0.00 in0.0 mm 0.00 in0.0 mm
06:03 AM 61.0°F16.1°C 55.8°F13.2°C 83% - N N -- 30.03 in1016.9 mb 0.00 in0.0 mm 0.00 in0.0 mm 0.00 in0.0 mm
06:06 AM 61.0°F16.1°C 55.4°F13.0°C 82% - N N -- 30.03 in1016.9 mb 0.00 in0.0 mm 0.00 in0.0 mm 0.00 in0.0 mm
06:08 AM 61.2°F16.2°C 55.6°F13.1°C 82% - N N -- 30.03 in1016.9 mb 0.00 in0.0 mm 0.00 in0.0 mm 0.00 in0.0 mm
06:10 AM 61.2°F16.2°C 55.6°F13.1°C 82% - N N -- 30.03 in1016.9 mb 0.00 in0.0 mm 0.00 in0.0 mm 0.00 in0.0 mm
06:12 AM 61.2°F16.2°C 55.2°F12.9°C 81% - N N -- 30.03 in1016.9 mb 0.00 in0.0 mm 0.00 in0.0 mm 0.00 in0.0 mm
06:14 AM 61.2°F16.2°C 55.2°F12.9°C 81% - N N -- 30.03 in1016.9 mb 0.00 in0.0 mm 0.00 in0.0 mm 0.00 in0.0 mm
06:17 AM 61.2°F16.2°C 55.2°F12.9°C 81% - N N -- 30.03 in1016.9 mb 0.00 in0.0 mm 0.00 in0.0 mm 0.00 in0.0 mm
06:19 AM 61.2°F16.2°C 54.9°F12.7°C 80% - N N -- 30.03 in1016.9 mb 0.00 in0.0 mm 0.00 in0.0 mm 0.00 in0.0 mm
06:21 AM 61.2°F16.2°C 54.9°F12.7°C 80% - N N -- 30.03 in1016.9 mb 0.00 in0.0 mm 0.00 in0.0 mm 0.00 in0.0 mm
06:23 AM 61.3°F16.3°C 55.0°F12.8°C 80% - N N -- 30.03 in1016.9 mb 0.00 in0.0 mm 0.00 in0.0 mm 0.00 in0.0 mm
06:25 AM 61.3°F16.3°C 55.0°F12.8°C 80% - N N -- 30.03 in1016.9 mb 0.00 in0.0 mm 0.00 in0.0 mm 0.00 in0.0 mm
06:28 AM 61.3°F16.3°C 55.0°F12.8°C 80% - N N -- 30.03 in1016.9 mb 0.00 in0.0 mm 0.00 in0.0 mm 0.00 in0.0 mm
06:30 AM 61.3°F16.3°C 55.0°F12.8°C 80% - N N -- 30.03 in1016.9 mb 0.00 in0.0 mm 0.00 in0.0 mm 0.00 in0.0 mm
06:32 AM 61.3°F16.3°C 55.0°F12.8°C 80% - N N -- 30.03 in1016.9 mb 0.00 in0.0 mm 0.00 in0.0 mm 0.00 in0.0 mm
06:34 AM 61.3°F16.3°C 55.0°F12.8°C 80% - N N -- 30.03 in1016.9 mb 0.00 in0.0 mm 0.00 in0.0 mm 0.00 in0.0 mm
06:37 AM 61.5°F16.4°C 55.2°F12.9°C 80% - N N -- 30.03 in1016.9 mb 0.00 in0.0 mm 0.00 in0.0 mm 0.00 in0.0 mm
06:39 AM 61.5°F16.4°C 55.2°F12.9°C 80% - N N -- 30.03 in1016.9 mb 0.00 in0.0 mm 0.00 in0.0 mm 0.00 in0.0 mm
06:41 AM 61.9°F16.6°C 55.6°F13.1°C 80% - N N -- 30.03 in1016.9 mb 0.00 in0.0 mm 0.00 in0.0 mm 0.00 in0.0 mm
06:43 AM 61.9°F16.6°C 55.2°F12.9°C 79% - N N -- 30.03 in1016.9 mb 0.00 in0.0 mm 0.00 in0.0 mm 0.00 in0.0 mm
06:46 AM 62.1°F16.7°C 55.4°F13.0°C 79% - N N -- 30.03 in1016.9 mb 0.00 in0.0 mm 0.00 in0.0 mm 0.00 in0.0 mm
06:48 AM 62.1°F16.7°C 55.4°F13.0°C 79% - N N -- 30.04 in1017.3 mb 0.00 in0.0 mm 0.00 in0.0 mm 0.00 in0.0 mm
06:50 AM 62.2°F16.8°C 55.6°F13.1°C 79% - N N -- 30.03 in1016.9 mb 0.00 in0.0 mm 0.00 in0.0 mm 0.00 in0.0 mm
06:52 AM 62.2°F16.8°C 55.2°F12.9°C 78% Calm Calm -- 30.03 in1016.9 mb 0.00 in0.0 mm 0.00 in0.0 mm 0.00 in0.0 mm
06:54 AM 62.2°F16.8°C 55.2°F12.9°C 78% Calm Calm -- 30.04 in1017.3 mb 0.00 in0.0 mm 0.00 in0.0 mm 0.00 in0.0 mm
06:56 AM 62.2°F16.8°C 55.2°F12.9°C 78% Calm Calm -- 30.03 in1016.9 mb 0.00 in0.0 mm 0.00 in0.0 mm 0.00 in0.0 mm
06:59 AM 62.2°F16.8°C 55.2°F12.9°C 78% Calm Calm -- 30.04 in1017.3 mb 0.00 in0.0 mm 0.00 in0.0 mm 0.00 in0.0 mm
07:01 AM 62.4°F16.9°C 55.4°F13.0°C 78% Calm Calm -- 30.03 in1016.9 mb 0.00 in0.0 mm 0.00 in0.0 mm 0.00 in0.0 mm
07:03 AM 62.4°F16.9°C 55.4°F13.0°C 78% Calm Calm -- 30.03 in1016.9 mb 0.00 in0.0 mm 0.00 in0.0 mm 0.00 in0.0 mm
07:05 AM 62.6°F17.0°C 55.6°F13.1°C 78% Calm Calm -- 30.04 in1017.3 mb 0.00 in0.0 mm 0.00 in0.0 mm 0.00 in0.0 mm
07:08 AM 62.8°F17.1°C 55.8°F13.2°C 78% Calm Calm -- 30.04 in1017.3 mb 0.00 in0.0 mm 0.00 in0.0 mm 0.00 in0.0 mm
07:10 AM 62.8°F17.1°C 55.4°F13.0°C 77% Calm Calm -- 30.04 in1017.3 mb 0.00 in0.0 mm 0.00 in0.0 mm 0.00 in0.0 mm
07:12 AM 62.8°F17.1°C 55.4°F13.0°C 77% Calm Calm -- 30.04 in1017.3 mb 0.00 in0.0 mm 0.00 in0.0 mm 0.00 in0.0 mm
07:14 AM 62.8°F17.1°C 55.4°F13.0°C 77% Calm Calm -- 30.04 in1017.3 mb 0.00 in0.0 mm 0.00 in0.0 mm 0.00 in0.0 mm
07:16 AM 63.0°F17.2°C 55.9°F13.3°C 78% Calm Calm -- 30.04 in1017.3 mb 0.00 in0.0 mm 0.00 in0.0 mm 0.00 in0.0 mm
07:19 AM 63.1°F17.3°C 56.1°F13.4°C 78% Calm Calm -- 30.04 in1017.3 mb 0.00 in0.0 mm 0.00 in0.0 mm 0.00 in0.0 mm
07:21 AM 63.1°F17.3°C 55.8°F13.2°C 77% Calm Calm -- 30.04 in1017.3 mb 0.00 in0.0 mm 0.00 in0.0 mm 0.00 in0.0 mm
07:23 AM 63.1°F17.3°C 55.8°F13.2°C 77% Calm Calm -- 30.04 in1017.3 mb 0.00 in0.0 mm 0.00 in0.0 mm 0.00 in0.0 mm
07:25 AM 63.3°F17.4°C 55.9°F13.3°C 77% Calm Calm -- 30.04 in1017.3 mb 0.00 in0.0 mm 0.00 in0.0 mm 0.00 in0.0 mm
07:27 AM 63.3°F17.4°C 55.6°F13.1°C 76% Calm Calm -- 30.04 in1017.3 mb 0.00 in0.0 mm 0.00 in0.0 mm 0.00 in0.0 mm
07:29 AM 63.1°F17.3°C 55.4°F13.0°C 76% Calm Calm -- 30.04 in1017.3 mb 0.00 in0.0 mm 0.00 in0.0 mm 0.00 in0.0 mm
07:31 AM 63.3°F17.4°C 55.6°F13.1°C 76% Calm Calm -- 30.04 in1017.3 mb 0.00 in0.0 mm 0.00 in0.0 mm 0.00 in0.0 mm
07:34 AM 63.5°F17.5°C 56.1°F13.4°C 77% Calm Calm -- 30.04 in1017.3 mb 0.00 in0.0 mm 0.00 in0.0 mm 0.00 in0.0 mm
07:36 AM 63.7°F17.6°C 56.3°F13.5°C 77% Calm Calm -- 30.04 in1017.3 mb 0.00 in0.0 mm 0.00 in0.0 mm 0.00 in0.0 mm
07:38 AM 63.7°F17.6°C 55.9°F13.3°C 76% Calm Calm -- 30.04 in1017.3 mb 0.00 in0.0 mm 0.00 in0.0 mm 0.00 in0.0 mm
07:40 AM 63.7°F17.6°C 55.9°F13.3°C 76% Calm Calm -- 30.04 in1017.3 mb 0.00 in0.0 mm 0.00 in0.0 mm 0.00 in0.0 mm
07:43 AM 63.9°F17.7°C 56.1°F13.4°C 76% Calm Calm -- 30.05 in1017.6 mb 0.00 in0.0 mm 0.00 in0.0 mm 0.00 in0.0 mm
07:45 AM 64.0°F17.8°C 56.3°F13.5°C 76% Calm Calm -- 30.04 in1017.3 mb 0.00 in0.0 mm 0.00 in0.0 mm 0.00 in0.0 mm
07:47 AM 64.0°F17.8°C 56.3°F13.5°C 76% Calm Calm -- 30.04 in1017.3 mb 0.00 in0.0 mm 0.00 in0.0 mm 0.00 in0.0 mm
07:49 AM 64.2°F17.9°C 56.5°F13.6°C 76% Calm Calm -- 30.04 in1017.3 mb 0.00 in0.0 mm 0.00 in0.0 mm 0.00 in0.0 mm
07:51 AM 64.2°F17.9°C 56.5°F13.6°C 76% Calm Calm -- 30.05 in1017.6 mb 0.00 in0.0 mm 0.00 in0.0 mm 0.00 in0.0 mm
07:54 AM 64.4°F18.0°C 56.3°F13.5°C 75% 0.4 mph ENE0.6 kmh ENE 2.9 mph4.7 kmh 30.04 in1017.3 mb 0.00 in0.0 mm 0.00 in0.0 mm 0.00 in0.0 mm
07:56 AM 64.6°F18.1°C 56.5°F13.6°C 75% 0.7 mph W1.1 kmh W 2.5 mph4.0 kmh 30.04 in1017.3 mb 0.00 in0.0 mm 0.00 in0.0 mm 0.00 in0.0 mm
07:58 AM 64.8°F18.2°C 56.7°F13.7°C 75% 1.1 mph NNE1.8 kmh NNE 3.8 mph6.1 kmh 30.04 in1017.3 mb 0.00 in0.0 mm 0.00 in0.0 mm 0.00 in0.0 mm
08:00 AM 64.8°F18.2°C 56.3°F13.5°C 74% 0.9 mph SW1.4 kmh SW 2.5 mph4.0 kmh 30.04 in1017.3 mb 0.00 in0.0 mm 0.00 in0.0 mm 0.00 in0.0 mm
08:03 AM 64.9°F18.3°C 56.5°F13.6°C 74% 1.3 mph W2.1 kmh W 3.1 mph5.0 kmh 30.05 in1017.6 mb 0.00 in0.0 mm 0.00 in0.0 mm 0.00 in0.0 mm
08:05 AM 64.9°F18.3°C 56.5°F13.6°C 74% 1.6 mph WNW2.6 kmh WNW 2.9 mph4.7 kmh 30.04 in1017.3 mb 0.00 in0.0 mm 0.00 in0.0 mm 0.00 in0.0 mm
08:07 AM 64.9°F18.3°C 56.5°F13.6°C 74% 2.2 mph 3.5 kmh 6.0 mph9.7 kmh 30.04 in1017.3 mb 0.00 in0.0 mm 0.00 in0.0 mm 0.00 in0.0 mm
08:09 AM 65.1°F18.4°C 56.3°F13.5°C 73% 1.8 mph W2.9 kmh W 4.0 mph6.4 kmh 30.05 in1017.6 mb 0.00 in0.0 mm 0.00 in0.0 mm 0.00 in0.0 mm
08:11 AM 65.1°F18.4°C 56.3°F13.5°C 73% 3.4 mph WNW5.5 kmh WNW 8.1 mph13.0 kmh 30.04 in1017.3 mb 0.00 in0.0 mm 0.00 in0.0 mm 0.00 in0.0 mm
08:14 AM 64.9°F18.3°C 56.1°F13.4°C 73% 4.7 mph WNW7.6 kmh WNW 8.9 mph14.3 kmh 30.05 in1017.6 mb 0.00 in0.0 mm 0.00 in0.0 mm 0.00 in0.0 mm
08:16 AM 64.9°F18.3°C 56.1°F13.4°C 73% 3.8 mph WNW6.1 kmh WNW 4.0 mph6.4 kmh 30.05 in1017.6 mb 0.00 in0.0 mm 0.00 in0.0 mm 0.00 in0.0 mm
08:18 AM 65.1°F18.4°C 56.7°F13.7°C 74% 3.4 mph NNW5.5 kmh NNW 5.6 mph9.0 kmh 30.05 in1017.6 mb 0.00 in0.0 mm 0.00 in0.0 mm 0.00 in0.0 mm
08:21 AM 65.1°F18.4°C 56.7°F13.7°C 74% 2.2 mph 3.5 kmh 2.7 mph4.3 kmh 30.05 in1017.6 mb 0.00 in0.0 mm 0.00 in0.0 mm 0.00 in0.0 mm
08:23 AM 65.5°F18.6°C 57.0°F13.9°C 74% 2.0 mph W3.2 kmh W 4.0 mph6.4 kmh 30.05 in1017.6 mb 0.00 in0.0 mm 0.00 in0.0 mm 0.00 in0.0 mm
08:25 AM 65.5°F18.6°C 57.0°F13.9°C 74% 2.0 mph WNW3.2 kmh WNW 3.6 mph5.8 kmh 30.05 in1017.6 mb 0.00 in0.0 mm 0.00 in0.0 mm 0.00 in0.0 mm
08:27 AM 65.5°F18.6°C 56.7°F13.7°C 73% 2.0 mph NW3.2 kmh NW 3.6 mph5.8 kmh 30.05 in1017.6 mb 0.00 in0.0 mm 0.00 in0.0 mm 0.00 in0.0 mm
08:29 AM 65.5°F18.6°C 56.7°F13.7°C 73% 1.8 mph NNW2.9 kmh NNW 3.8 mph6.1 kmh 30.05 in1017.6 mb 0.00 in0.0 mm 0.00 in0.0 mm 0.00 in0.0 mm
08:32 AM 65.5°F18.6°C 56.7°F13.7°C 73% 2.0 mph W3.2 kmh W 4.5 mph7.2 kmh 30.05 in1017.6 mb 0.00 in0.0 mm 0.00 in0.0 mm 0.00 in0.0 mm
08:34 AM 65.5°F18.6°C 56.7°F13.7°C 73% 2.7 mph NW4.3 kmh NW 4.3 mph6.9 kmh 30.05 in1017.6 mb 0.00 in0.0 mm 0.00 in0.0 mm 0.00 in0.0 mm
08:36 AM 65.5°F18.6°C 56.7°F13.7°C 73% 3.6 mph WNW5.8 kmh WNW 5.6 mph9.0 kmh 30.05 in1017.6 mb 0.00 in0.0 mm 0.00 in0.0 mm 0.00 in0.0 mm
08:38 AM 65.1°F18.4°C 56.3°F13.5°C 73% 3.1 mph W5.0 kmh W 4.5 mph7.2 kmh 30.05 in1017.6 mb 0.00 in0.0 mm 0.00 in0.0 mm 0.00 in0.0 mm
08:40 AM 65.1°F18.4°C 56.7°F13.7°C 74% 3.1 mph NNW5.0 kmh NNW 4.7 mph7.6 kmh 30.05 in1017.6 mb 0.00 in0.0 mm 0.00 in0.0 mm 0.00 in0.0 mm
08:43 AM 65.3°F18.5°C 56.8°F13.8°C 74% 3.1 mph W5.0 kmh W 3.8 mph6.1 kmh 30.05 in1017.6 mb 0.00 in0.0 mm 0.00 in0.0 mm 0.00 in0.0 mm
08:45 AM 65.7°F18.7°C 57.2°F14.0°C 74% 2.7 mph WNW4.3 kmh WNW 3.6 mph5.8 kmh 30.05 in1017.6 mb 0.00 in0.0 mm 0.00 in0.0 mm 0.00 in0.0 mm
08:47 AM 65.8°F18.8°C 57.4°F14.1°C 74% 2.2 mph NNW3.5 kmh NNW 3.1 mph5.0 kmh 30.04 in1017.3 mb 0.00 in0.0 mm 0.00 in0.0 mm 0.00 in0.0 mm
08:49 AM 65.8°F18.8°C 57.4°F14.1°C 74% 1.6 mph WNW2.6 kmh WNW 2.5 mph4.0 kmh 30.04 in1017.3 mb 0.00 in0.0 mm 0.00 in0.0 mm 0.00 in0.0 mm
08:52 AM 65.8°F18.8°C 57.0°F13.9°C 73% 2.0 mph WNW3.2 kmh WNW 3.4 mph5.5 kmh 30.05 in1017.6 mb 0.00 in0.0 mm 0.00 in0.0 mm 0.00 in0.0 mm
08:54 AM 66.0°F18.9°C 57.2°F14.0°C 73% 2.7 mph WNW4.3 kmh WNW 4.7 mph7.6 kmh 30.05 in1017.6 mb 0.00 in0.0 mm 0.00 in0.0 mm 0.00 in0.0 mm
08:56 AM 65.8°F18.8°C 57.0°F13.9°C 73% 3.4 mph W5.5 kmh W 6.7 mph10.8 kmh 30.05 in1017.6 mb 0.00 in0.0 mm 0.00 in0.0 mm 0.00 in0.0 mm
08:58 AM 65.7°F18.7°C 56.8°F13.8°C 73% 2.9 mph WNW4.7 kmh WNW 4.7 mph7.6 kmh 30.05 in1017.6 mb 0.00 in0.0 mm 0.00 in0.0 mm 0.00 in0.0 mm
09:01 AM 65.8°F18.8°C 57.0°F13.9°C 73% 2.7 mph NW4.3 kmh NW 4.7 mph7.6 kmh 30.05 in1017.6 mb 0.00 in0.0 mm 0.00 in0.0 mm 0.00 in0.0 mm
09:03 AM 66.0°F18.9°C 57.2°F14.0°C 73% 2.5 mph 4.0 kmh 6.7 mph10.8 kmh 30.05 in1017.6 mb 0.00 in0.0 mm 0.00 in0.0 mm 0.00 in0.0 mm
09:05 AM 66.2°F19.0°C 57.2°F14.0°C 73% 1.6 mph W2.6 kmh W 3.1 mph5.0 kmh 30.05 in1017.6 mb 0.00 in0.0 mm 0.00 in0.0 mm 0.00 in0.0 mm
09:07 AM 66.0°F18.9°C 56.7°F13.7°C 72% 2.0 mph WSW3.2 kmh WSW 3.8 mph6.1 kmh 30.06 in1017.9 mb 0.00 in0.0 mm 0.00 in0.0 mm 0.00 in0.0 mm
09:09 AM 66.0°F18.9°C 56.7°F13.7°C 72% 2.7 mph WNW4.3 kmh WNW 4.0 mph6.4 kmh 30.05 in1017.6 mb 0.00 in0.0 mm 0.00 in0.0 mm 0.00 in0.0 mm
09:11 AM 66.0°F18.9°C 56.7°F13.7°C 72% 3.4 mph WNW5.5 kmh WNW 8.5 mph13.7 kmh 30.06 in1017.9 mb 0.00 in0.0 mm 0.00 in0.0 mm 0.00 in0.0 mm
09:13 AM 65.8°F18.8°C 56.5°F13.6°C 72% 3.1 mph NW5.0 kmh NW 4.0 mph6.4 kmh 30.05 in1017.6 mb 0.00 in0.0 mm 0.00 in0.0 mm 0.00 in0.0 mm
09:15 AM 65.7°F18.7°C 56.3°F13.5°C 72% 2.9 mph NW4.7 kmh NW 4.7 mph7.6 kmh 30.06 in1017.9 mb 0.00 in0.0 mm 0.00 in0.0 mm 0.00 in0.0 mm
09:18 AM 65.5°F18.6°C 56.7°F13.7°C 73% 2.5 mph NNW4.0 kmh NNW 6.7 mph10.8 kmh 30.06 in1017.9 mb 0.00 in0.0 mm 0.00 in0.0 mm 0.00 in0.0 mm
09:20 AM 65.5°F18.6°C 56.7°F13.7°C 73% 2.5 mph NNE4.0 kmh NNE 4.7 mph7.6 kmh 30.06 in1017.9 mb 0.00 in0.0 mm 0.00 in0.0 mm 0.00 in0.0 mm
09:22 AM 65.7°F18.7°C 56.8°F13.8°C 73% 2.7 mph NW4.3 kmh NW 4.0 mph6.4 kmh 30.05 in1017.6 mb 0.00 in0.0 mm 0.00 in0.0 mm 0.00 in0.0 mm
09:24 AM 66.0°F18.9°C 57.2°F14.0°C 73% 2.9 mph WNW4.7 kmh WNW 4.5 mph7.2 kmh 30.06 in1017.9 mb 0.00 in0.0 mm 0.00 in0.0 mm 0.00 in0.0 mm
09:26 AM 66.4°F19.1°C 57.4°F14.1°C 73% 2.5 mph ENE4.0 kmh ENE 4.0 mph6.4 kmh 30.05 in1017.6 mb 0.00 in0.0 mm 0.00 in0.0 mm 0.00 in0.0 mm
09:28 AM 66.6°F19.2°C 57.2°F14.0°C 72% 2.2 mph NNE3.5 kmh NNE 5.1 mph8.2 kmh 30.05 in1017.6 mb 0.00 in0.0 mm 0.00 in0.0 mm 0.00 in0.0 mm
09:31 AM 66.6°F19.2°C 56.1°F13.4°C 69% 3.4 mph WNW5.5 kmh WNW 10.5 mph16.9 kmh 30.05 in1017.6 mb 0.00 in0.0 mm 0.00 in0.0 mm 0.00 in0.0 mm
09:33 AM 66.7°F19.3°C 55.8°F13.2°C 68% 3.4 mph 5.5 kmh 5.1 mph8.2 kmh 30.06 in1017.9 mb 0.00 in0.0 mm 0.00 in0.0 mm 0.00 in0.0 mm
09:35 AM 66.7°F19.3°C 55.8°F13.2°C 68% 2.9 mph W4.7 kmh W 4.3 mph6.9 kmh 30.05 in1017.6 mb 0.00 in0.0 mm 0.00 in0.0 mm 0.00 in0.0 mm
09:38 AM 66.7°F19.3°C 55.8°F13.2°C 68% 3.1 mph 5.0 kmh 6.9 mph11.1 kmh 30.05 in1017.6 mb 0.00 in0.0 mm 0.00 in0.0 mm 0.00 in0.0 mm
09:40 AM 66.6°F19.2°C 55.2°F12.9°C 67% 3.1 mph WNW5.0 kmh WNW 4.0 mph6.4 kmh 30.05 in1017.6 mb 0.00 in0.0 mm 0.00 in0.0 mm 0.00 in0.0 mm
09:42 AM 66.6°F19.2°C 55.2°F12.9°C 67% 2.5 mph WNW4.0 kmh WNW 3.6 mph5.8 kmh 30.05 in1017.6 mb 0.00 in0.0 mm 0.00 in0.0 mm 0.00 in0.0 mm
09:44 AM 66.4°F19.1°C 54.7°F12.6°C 66% 4.7 mph NW7.6 kmh NW 9.2 mph14.8 kmh 30.05 in1017.6 mb 0.00 in0.0 mm 0.00 in0.0 mm 0.00 in0.0 mm
09:46 AM 66.7°F19.3°C 55.0°F12.8°C 66% 4.9 mph 7.9 kmh 6.7 mph10.8 kmh 30.06 in1017.9 mb 0.00 in0.0 mm 0.00 in0.0 mm 0.00 in0.0 mm
09:48 AM 66.9°F19.4°C 55.2°F12.9°C 66% 4.0 mph NNW6.4 kmh NNW 6.5 mph10.5 kmh 30.06 in1017.9 mb 0.00 in0.0 mm 0.00 in0.0 mm 0.00 in0.0 mm
09:51 AM 67.5°F19.7°C 55.8°F13.2°C 66% 3.4 mph NW5.5 kmh NW 7.2 mph11.6 kmh 30.06 in1017.9 mb 0.00 in0.0 mm 0.00 in0.0 mm 0.00 in0.0 mm
09:53 AM 67.6°F19.8°C 55.4°F13.0°C 65% 2.7 mph NNE4.3 kmh NNE 5.1 mph8.2 kmh 30.05 in1017.6 mb 0.00 in0.0 mm 0.00 in0.0 mm 0.00 in0.0 mm
09:55 AM 67.8°F19.9°C 55.2°F12.9°C 64% 3.6 mph NW5.8 kmh NW 6.3 mph10.1 kmh 30.06 in1017.9 mb 0.00 in0.0 mm 0.00 in0.0 mm 0.00 in0.0 mm
09:58 AM 67.8°F19.9°C 55.2°F12.9°C 64% 3.4 mph NNW5.5 kmh NNW 6.9 mph11.1 kmh 30.06 in1017.9 mb 0.00 in0.0 mm 0.00 in0.0 mm 0.00 in0.0 mm
10:00 AM 68.2°F20.1°C 55.6°F13.1°C 64% 3.8 mph WSW6.1 kmh WSW 6.9 mph11.1 kmh 30.05 in1017.6 mb 0.00 in0.0 mm 0.00 in0.0 mm 0.00 in0.0 mm
10:02 AM 68.2°F20.1°C 54.7°F12.6°C 62% 4.5 mph W7.2 kmh W 8.3 mph13.4 kmh 30.06 in1017.9 mb 0.00 in0.0 mm 0.00 in0.0 mm 0.00 in0.0 mm
10:04 AM 68.2°F20.1°C 54.7°F12.6°C 62% 4.9 mph W7.9 kmh W 6.9 mph11.1 kmh 30.06 in1017.9 mb 0.00 in0.0 mm 0.00 in0.0 mm 0.00 in0.0 mm
10:07 AM 68.2°F20.1°C 54.7°F12.6°C 62% 4.9 mph W7.9 kmh W 8.9 mph14.3 kmh 30.06 in1017.9 mb 0.00 in0.0 mm 0.00 in0.0 mm 0.00 in0.0 mm
10:09 AM 68.4°F20.2°C 55.2°F12.9°C 63% 3.4 mph NW5.5 kmh NW 2.5 mph4.0 kmh 30.06 in1017.9 mb 0.00 in0.0 mm 0.00 in0.0 mm 0.00 in0.0 mm
10:11 AM 68.5°F20.3°C 55.0°F12.8°C 62% 2.9 mph W4.7 kmh W 4.7 mph7.6 kmh 30.06 in1017.9 mb 0.00 in0.0 mm 0.00 in0.0 mm 0.00 in0.0 mm
10:13 AM 68.4°F20.2°C 54.3°F12.4°C 61% 3.1 mph W5.0 kmh W 7.8 mph12.6 kmh 30.06 in1017.9 mb 0.00 in0.0 mm 0.00 in0.0 mm 0.00 in0.0 mm
10:16 AM 68.4°F20.2°C 54.0°F12.2°C 60% 3.4 mph W5.5 kmh W 4.7 mph7.6 kmh 30.06 in1017.9 mb 0.00 in0.0 mm 0.00 in0.0 mm 0.00 in0.0 mm
10:18 AM 68.7°F20.4°C 54.7°F12.6°C 61% 3.1 mph 5.0 kmh 6.5 mph10.5 kmh 30.06 in1017.9 mb 0.00 in0.0 mm 0.00 in0.0 mm 0.00 in0.0 mm
10:20 AM 69.1°F20.6°C 54.7°F12.6°C 60% 2.2 mph SSW3.5 kmh SSW 4.3 mph6.9 kmh 30.06 in1017.9 mb 0.00 in0.0 mm 0.00 in0.0 mm 0.00 in0.0 mm
10:22 AM 69.4°F20.8°C 54.0°F12.2°C 58% 4.0 mph WNW6.4 kmh WNW 10.5 mph16.9 kmh 30.06 in1017.9 mb 0.00 in0.0 mm 0.00 in0.0 mm 0.00 in0.0 mm
10:24 AM 69.3°F20.7°C 53.8°F12.1°C 58% 4.3 mph NW6.9 kmh NW 7.4 mph11.9 kmh 30.06 in1017.9 mb 0.00 in0.0 mm 0.00 in0.0 mm 0.00 in0.0 mm
10:27 AM 68.9°F20.5°C 54.0°F12.2°C 59% 4.3 mph NNW6.9 kmh NNW 8.7 mph14.0 kmh 30.06 in1017.9 mb 0.00 in0.0 mm 0.00 in0.0 mm 0.00 in0.0 mm
10:29 AM 68.9°F20.5°C 54.0°F12.2°C 59% 4.3 mph NW6.9 kmh NW 9.6 mph15.4 kmh 30.06 in1017.9 mb 0.00 in0.0 mm 0.00 in0.0 mm 0.00 in0.0 mm
10:31 AM 68.9°F20.5°C 53.6°F12.0°C 58% 3.4 mph W5.5 kmh W 6.3 mph10.1 kmh 30.06 in1017.9 mb 0.00 in0.0 mm 0.00 in0.0 mm 0.00 in0.0 mm
10:33 AM 69.4°F20.8°C 54.5°F12.5°C 59% 2.5 mph W4.0 kmh W 4.0 mph6.4 kmh 30.06 in1017.9 mb 0.00 in0.0 mm 0.00 in0.0 mm 0.00 in0.0 mm
10:36 AM 69.6°F20.9°C 54.7°F12.6°C 59% 3.8 mph NW6.1 kmh NW 6.7 mph10.8 kmh 30.06 in1017.9 mb 0.00 in0.0 mm 0.00 in0.0 mm 0.00 in0.0 mm
10:38 AM 69.6°F20.9°C 53.8°F12.1°C 57% 4.9 mph WNW7.9 kmh WNW 10.5 mph16.9 kmh 30.06 in1017.9 mb 0.00 in0.0 mm 0.00 in0.0 mm 0.00 in0.0 mm
10:40 AM 69.6°F20.9°C 53.2°F11.8°C 56% 5.4 mph WNW8.7 kmh WNW 9.2 mph14.8 kmh 30.06 in1017.9 mb 0.00 in0.0 mm 0.00 in0.0 mm 0.00 in0.0 mm
10:42 AM 69.6°F20.9°C 53.2°F11.8°C 56% 5.6 mph WNW9.0 kmh WNW 8.7 mph14.0 kmh 30.06 in1017.9 mb 0.00 in0.0 mm 0.00 in0.0 mm 0.00 in0.0 mm
10:44 AM 69.6°F20.9°C 53.2°F11.8°C 56% 5.1 mph WNW8.2 kmh WNW 7.2 mph11.6 kmh 30.06 in1017.9 mb 0.00 in0.0 mm 0.00 in0.0 mm 0.00 in0.0 mm
10:46 AM 70.0°F21.1°C 53.6°F12.0°C 56% 4.5 mph WSW7.2 kmh WSW 5.8 mph9.3 kmh 30.06 in1017.9 mb 0.00 in0.0 mm 0.00 in0.0 mm 0.00 in0.0 mm
10:49 AM 70.2°F21.2°C 54.1°F12.3°C 57% 2.9 mph W4.7 kmh W 2.9 mph4.7 kmh 30.05 in1017.6 mb 0.00 in0.0 mm 0.00 in0.0 mm 0.00 in0.0 mm
10:51 AM 70.3°F21.3°C 54.3°F12.4°C 57% 3.6 mph 5.8 kmh 5.6 mph9.0 kmh 30.06 in1017.9 mb 0.00 in0.0 mm 0.00 in0.0 mm 0.00 in0.0 mm
10:53 AM 70.5°F21.4°C 52.5°F11.4°C 53% 3.1 mph NW5.0 kmh NW 4.7 mph7.6 kmh 30.06 in1017.9 mb 0.00 in0.0 mm 0.00 in0.0 mm 0.00 in0.0 mm
10:55 AM 70.5°F21.4°C 52.5°F11.4°C 53% 2.7 mph W4.3 kmh W 3.1 mph5.0 kmh 30.05 in1017.6 mb 0.00 in0.0 mm 0.00 in0.0 mm 0.00 in0.0 mm
10:58 AM 71.1°F21.7°C 53.1°F11.7°C 53% 3.4 mph 5.5 kmh 5.6 mph9.0 kmh 30.05 in1017.6 mb 0.00 in0.0 mm 0.00 in0.0 mm 0.00 in0.0 mm
11:00 AM 70.9°F21.6°C 52.3°F11.3°C 52% 4.7 mph WNW7.6 kmh WNW 12.3 mph19.8 kmh 30.05 in1017.6 mb 0.00 in0.0 mm 0.00 in0.0 mm 0.00 in0.0 mm
11:02 AM 70.9°F21.6°C 52.9°F11.6°C 53% 3.8 mph NNW6.1 kmh NNW 3.6 mph5.8 kmh 30.05 in1017.6 mb 0.00 in0.0 mm 0.00 in0.0 mm 0.00 in0.0 mm
11:04 AM 70.9°F21.6°C 52.3°F11.3°C 52% 5.1 mph WNW8.2 kmh WNW 8.9 mph14.3 kmh 30.05 in1017.6 mb 0.00 in0.0 mm 0.00 in0.0 mm 0.00 in0.0 mm
11:06 AM 70.9°F21.6°C 52.9°F11.6°C 53% 4.0 mph NW6.4 kmh NW 4.7 mph7.6 kmh 30.05 in1017.6 mb 0.00 in0.0 mm 0.00 in0.0 mm 0.00 in0.0 mm
11:09 AM 70.9°F21.6°C 51.3°F10.7°C 50% 4.5 mph W7.2 kmh W 9.6 mph15.4 kmh 30.05 in1017.6 mb 0.00 in0.0 mm 0.00 in0.0 mm 0.00 in0.0 mm
11:11 AM 70.7°F21.5°C 50.5°F10.3°C 49% 4.0 mph WNW6.4 kmh WNW 7.4 mph11.9 kmh 30.05 in1017.6 mb 0.00 in0.0 mm 0.00 in0.0 mm 0.00 in0.0 mm
11:13 AM 70.9°F21.6°C 51.3°F10.7°C 50% 3.4 mph W5.5 kmh W 3.6 mph5.8 kmh 30.05 in1017.6 mb 0.00 in0.0 mm 0.00 in0.0 mm 0.00 in0.0 mm
11:15 AM 71.2°F21.8°C 51.1°F10.6°C 49% 2.7 mph WSW4.3 kmh WSW 3.8 mph6.1 kmh 30.05 in1017.6 mb 0.00 in0.0 mm 0.00 in0.0 mm 0.00 in0.0 mm
11:17 AM 71.4°F21.9°C 51.8°F11.0°C 50% 3.4 mph NNW5.5 kmh NNW 6.9 mph11.1 kmh 30.05 in1017.6 mb 0.00 in0.0 mm 0.00 in0.0 mm 0.00 in0.0 mm
11:19 AM 71.8°F22.1°C 52.2°F11.2°C 50% 4.9 mph NNE7.9 kmh NNE 14.3 mph23.0 kmh 30.05 in1017.6 mb 0.00 in0.0 mm 0.00 in0.0 mm 0.00 in0.0 mm
11:22 AM 71.8°F22.1°C 52.2°F11.2°C 50% 4.5 mph NW7.2 kmh NW 5.1 mph8.2 kmh 30.05 in1017.6 mb 0.00 in0.0 mm 0.00 in0.0 mm 0.00 in0.0 mm
11:24 AM 71.8°F22.1°C 52.2°F11.2°C 50% 5.1 mph WNW8.2 kmh WNW 11.0 mph17.7 kmh 30.05 in1017.6 mb 0.00 in0.0 mm 0.00 in0.0 mm 0.00 in0.0 mm
11:26 AM 71.4°F21.9°C 51.8°F11.0°C 50% 5.4 mph NNW8.7 kmh NNW 9.6 mph15.4 kmh 30.05 in1017.6 mb 0.00 in0.0 mm 0.00 in0.0 mm 0.00 in0.0 mm
11:28 AM 71.2°F21.8°C 51.6°F10.9°C 50% 6.0 mph NNW9.7 kmh NNW 10.3 mph16.6 kmh 30.05 in1017.6 mb 0.00 in0.0 mm 0.00 in0.0 mm 0.00 in0.0 mm
11:30 AM 70.9°F21.6°C 51.3°F10.7°C 50% 4.7 mph NNW7.6 kmh NNW 6.9 mph11.1 kmh 30.05 in1017.6 mb 0.00 in0.0 mm 0.00 in0.0 mm 0.00 in0.0 mm
11:33 AM 70.9°F21.6°C 51.3°F10.7°C 50% 4.0 mph WNW6.4 kmh WNW 8.5 mph13.7 kmh 30.05 in1017.6 mb 0.00 in0.0 mm 0.00 in0.0 mm 0.00 in0.0 mm
11:35 AM 70.9°F21.6°C 51.3°F10.7°C 50% 4.9 mph 7.9 kmh 9.6 mph15.4 kmh 30.05 in1017.6 mb 0.00 in0.0 mm 0.00 in0.0 mm 0.00 in0.0 mm
11:37 AM 70.9°F21.6°C 51.8°F11.0°C 51% 4.3 mph WNW6.9 kmh WNW 4.7 mph7.6 kmh 30.05 in1017.6 mb 0.00 in0.0 mm 0.00 in0.0 mm 0.00 in0.0 mm
11:39 AM 70.9°F21.6°C 52.3°F11.3°C 52% 5.1 mph NW8.2 kmh NW 9.8 mph15.8 kmh 30.05 in1017.6 mb 0.00 in0.0 mm 0.00 in0.0 mm 0.00 in0.0 mm
11:41 AM 70.9°F21.6°C 52.9°F11.6°C 53% 4.5 mph NNW7.2 kmh NNW 7.6 mph12.2 kmh 30.05 in1017.6 mb 0.00 in0.0 mm 0.00 in0.0 mm 0.00 in0.0 mm
11:43 AM 71.2°F21.8°C 53.8°F12.1°C 54% 4.5 mph NW7.2 kmh NW 9.2 mph14.8 kmh 30.05 in1017.6 mb 0.00 in0.0 mm 0.00 in0.0 mm 0.00 in0.0 mm
11:46 AM 71.6°F22.0°C 53.6°F12.0°C 53% 5.6 mph SSE9.0 kmh SSE 14.3 mph23.0 kmh 30.04 in1017.3 mb 0.00 in0.0 mm 0.00 in0.0 mm 0.00 in0.0 mm
11:48 AM 71.8°F22.1°C 53.2°F11.8°C 52% 6.5 mph W10.5 kmh W 11.4 mph18.3 kmh 30.05 in1017.6 mb 0.00 in0.0 mm 0.00 in0.0 mm 0.00 in0.0 mm
11:50 AM 71.4°F21.9°C 53.4°F11.9°C 53% 4.9 mph WSW7.9 kmh WSW 5.1 mph8.2 kmh 30.04 in1017.3 mb 0.00 in0.0 mm 0.00 in0.0 mm 0.00 in0.0 mm
11:52 AM 71.4°F21.9°C 53.4°F11.9°C 53% 5.6 mph NNW9.0 kmh NNW 10.3 mph16.6 kmh 30.05 in1017.6 mb 0.00 in0.0 mm 0.00 in0.0 mm 0.00 in0.0 mm
11:54 AM 70.9°F21.6°C 53.4°F11.9°C 54% 5.8 mph NNW9.3 kmh NNW 11.9 mph19.2 kmh 30.04 in1017.3 mb 0.00 in0.0 mm 0.00 in0.0 mm 0.00 in0.0 mm
11:56 AM 70.9°F21.6°C 53.4°F11.9°C 54% 5.6 mph NNW9.0 kmh NNW 9.6 mph15.4 kmh 30.04 in1017.3 mb 0.00 in0.0 mm 0.00 in0.0 mm 0.00 in0.0 mm
11:59 AM 71.2°F21.8°C 53.2°F11.8°C 53% 5.8 mph NNW9.3 kmh NNW 10.7 mph17.2 kmh 30.04 in1017.3 mb 0.00 in0.0 mm 0.00 in0.0 mm 0.00 in0.0 mm
12:01 PM 71.2°F21.8°C 53.2°F11.8°C 53% 5.6 mph 9.0 kmh 7.6 mph12.2 kmh 30.04 in1017.3 mb 0.00 in0.0 mm 0.00 in0.0 mm 0.00 in0.0 mm
12:03 PM 71.2°F21.8°C 53.2°F11.8°C 53% 5.1 mph SE8.2 kmh SE 9.6 mph15.4 kmh 30.05 in1017.6 mb 0.00 in0.0 mm 0.00 in0.0 mm 0.00 in0.0 mm
12:05 PM 71.2°F21.8°C 52.7°F11.5°C 52% 6.3 mph 10.1 kmh 13.4 mph21.6 kmh 30.05 in1017.6 mb 0.00 in0.0 mm 0.00 in0.0 mm 0.00 in0.0 mm
12:08 PM 71.4°F21.9°C 52.9°F11.6°C 52% 4.9 mph SSW7.9 kmh SSW 5.6 mph9.0 kmh 30.05 in1017.6 mb 0.00 in0.0 mm 0.00 in0.0 mm 0.00 in0.0 mm
12:10 PM 71.4°F21.9°C 52.9°F11.6°C 52% 4.5 mph 7.2 kmh 11.0 mph17.7 kmh 30.05 in1017.6 mb 0.00 in0.0 mm 0.00 in0.0 mm 0.00 in0.0 mm
12:12 PM 71.2°F21.8°C 51.6°F10.9°C 50% 5.1 mph WNW8.2 kmh WNW 9.8 mph15.8 kmh 30.05 in1017.6 mb 0.00 in0.0 mm 0.00 in0.0 mm 0.00 in0.0 mm
12:14 PM 71.1°F21.7°C 52.0°F11.1°C 51% 5.6 mph SW9.0 kmh SW 12.1 mph19.5 kmh 30.05 in1017.6 mb 0.00 in0.0 mm 0.00 in0.0 mm 0.00 in0.0 mm
12:16 PM 71.2°F21.8°C 52.2°F11.2°C 51% 6.3 mph S10.1 kmh S 12.3 mph19.8 kmh 30.05 in1017.6 mb 0.00 in0.0 mm 0.00 in0.0 mm 0.00 in0.0 mm
12:18 PM 71.2°F21.8°C 52.2°F11.2°C 51% 5.1 mph WSW8.2 kmh WSW 12.8 mph20.6 kmh 30.04 in1017.3 mb 0.00 in0.0 mm 0.00 in0.0 mm 0.00 in0.0 mm
12:21 PM 71.4°F21.9°C 51.8°F11.0°C 50% 4.9 mph E7.9 kmh E 12.3 mph19.8 kmh 30.05 in1017.6 mb 0.00 in0.0 mm 0.00 in0.0 mm 0.00 in0.0 mm
12:23 PM 71.8°F22.1°C 51.6°F10.9°C 49% 3.6 mph 5.8 kmh 4.9 mph7.9 kmh 30.05 in1017.6 mb 0.00 in0.0 mm 0.00 in0.0 mm 0.00 in0.0 mm
12:25 PM 72.0°F22.2°C 51.8°F11.0°C 49% 5.1 mph NNW8.2 kmh NNW 8.5 mph13.7 kmh 30.05 in1017.6 mb 0.00 in0.0 mm 0.00 in0.0 mm 0.00 in0.0 mm
12:27 PM 72.1°F22.3°C 52.0°F11.1°C 49% 5.1 mph 8.2 kmh 7.6 mph12.2 kmh 30.04 in1017.3 mb 0.00 in0.0 mm 0.00 in0.0 mm 0.00 in0.0 mm
12:30 PM 72.3°F22.4°C 52.7°F11.5°C 50% 5.1 mph WSW8.2 kmh WSW 9.8 mph15.8 kmh 30.04 in1017.3 mb 0.00 in0.0 mm 0.00 in0.0 mm 0.00 in0.0 mm
12:32 PM 72.3°F22.4°C 52.7°F11.5°C 50% 4.9 mph W7.9 kmh W 9.6 mph15.4 kmh 30.05 in1017.6 mb 0.00 in0.0 mm 0.00 in0.0 mm 0.00 in0.0 mm
12:34 PM 72.3°F22.4°C 52.7°F11.5°C 50% 6.0 mph WNW9.7 kmh WNW 13.0 mph20.9 kmh 30.05 in1017.6 mb 0.00 in0.0 mm 0.00 in0.0 mm 0.00 in0.0 mm
12:36 PM 72.3°F22.4°C 51.4°F10.8°C 48% 5.4 mph W8.7 kmh W 6.7 mph10.8 kmh 30.05 in1017.6 mb 0.00 in0.0 mm 0.00 in0.0 mm 0.00 in0.0 mm
12:39 PM 72.3°F22.4°C 51.4°F10.8°C 48% 4.5 mph WSW7.2 kmh WSW 6.0 mph9.7 kmh 30.05 in1017.6 mb 0.00 in0.0 mm 0.00 in0.0 mm 0.00 in0.0 mm
12:41 PM 72.3°F22.4°C 50.9°F10.5°C 47% 5.1 mph NNW8.2 kmh NNW 8.5 mph13.7 kmh 30.05 in1017.6 mb 0.00 in0.0 mm 0.00 in0.0 mm 0.00 in0.0 mm
12:43 PM 72.3°F22.4°C 51.4°F10.8°C 48% 5.1 mph NNW8.2 kmh NNW 9.2 mph14.8 kmh 30.05 in1017.6 mb 0.00 in0.0 mm 0.00 in0.0 mm 0.00 in0.0 mm
12:45 PM 72.3°F22.4°C 52.2°F11.2°C 49% 4.9 mph NW7.9 kmh NW 7.6 mph12.2 kmh 30.05 in1017.6 mb 0.00 in0.0 mm 0.00 in0.0 mm 0.00 in0.0 mm
12:47 PM 72.5°F22.5°C 51.6°F10.9°C 48% 4.9 mph W7.9 kmh W 7.4 mph11.9 kmh 30.05 in1017.6 mb 0.00 in0.0 mm 0.00 in0.0 mm 0.00 in0.0 mm
12:50 PM 72.7°F22.6°C 51.8°F11.0°C 48% 4.7 mph NW7.6 kmh NW 6.5 mph10.5 kmh 30.05 in1017.6 mb 0.00 in0.0 mm 0.00 in0.0 mm 0.00 in0.0 mm
12:52 PM 72.7°F22.6°C 52.3°F11.3°C 49% 4.9 mph WNW7.9 kmh WNW 8.3 mph13.4 kmh 30.04 in1017.3 mb 0.00 in0.0 mm 0.00 in0.0 mm 0.00 in0.0 mm
12:54 PM 72.5°F22.5°C 52.3°F11.3°C 49% 6.3 mph NNW10.1 kmh NNW 15.0 mph24.1 kmh 30.04 in1017.3 mb 0.00 in0.0 mm 0.00 in0.0 mm 0.00 in0.0 mm
12:57 PM 72.1°F22.3°C 52.5°F11.4°C 50% 6.0 mph W9.7 kmh W 10.3 mph16.6 kmh 30.04 in1017.3 mb 0.00 in0.0 mm 0.00 in0.0 mm 0.00 in0.0 mm
12:59 PM 72.0°F22.2°C 52.3°F11.3°C 50% 5.8 mph WNW9.3 kmh WNW 8.1 mph13.0 kmh 30.04 in1017.3 mb 0.00 in0.0 mm 0.00 in0.0 mm 0.00 in0.0 mm
01:01 PM 72.1°F22.3°C 53.1°F11.7°C 51% 6.9 mph W11.1 kmh W 14.3 mph23.0 kmh 30.04 in1017.3 mb 0.00 in0.0 mm 0.00 in0.0 mm 0.00 in0.0 mm
01:03 PM 72.0°F22.2°C 52.9°F11.6°C 51% 5.4 mph SSE8.7 kmh SSE 8.5 mph13.7 kmh 30.04 in1017.3 mb 0.00 in0.0 mm 0.00 in0.0 mm 0.00 in0.0 mm
01:05 PM 71.4°F21.9°C 52.9°F11.6°C 52% 5.4 mph W8.7 kmh W 12.8 mph20.6 kmh 30.05 in1017.6 mb 0.00 in0.0 mm 0.00 in0.0 mm 0.00 in0.0 mm
01:08 PM 71.2°F21.8°C 52.7°F11.5°C 52% 5.8 mph NW9.3 kmh NW 9.2 mph14.8 kmh 30.05 in1017.6 mb 0.00 in0.0 mm 0.00 in0.0 mm 0.00 in0.0 mm
01:10 PM 70.9°F21.6°C 52.9°F11.6°C 53% 5.1 mph 8.2 kmh 8.5 mph13.7 kmh 30.04 in1017.3 mb 0.00 in0.0 mm 0.00 in0.0 mm 0.00 in0.0 mm
01:12 PM 70.9°F21.6°C 52.9°F11.6°C 53% 5.1 mph 8.2 kmh 6.9 mph11.1 kmh 30.04 in1017.3 mb 0.00 in0.0 mm 0.00 in0.0 mm 0.00 in0.0 mm
01:14 PM 71.2°F21.8°C 52.2°F11.2°C 51% 4.7 mph SSE7.6 kmh SSE 11.0 mph17.7 kmh 30.05 in1017.6 mb 0.00 in0.0 mm 0.00 in0.0 mm 0.00 in0.0 mm
01:16 PM 71.1°F21.7°C 52.0°F11.1°C 51% 4.9 mph 7.9 kmh 10.3 mph16.6 kmh 30.05 in1017.6 mb 0.00 in0.0 mm 0.00 in0.0 mm 0.00 in0.0 mm
01:18 PM 70.9°F21.6°C 51.3°F10.7°C 50% 7.2 mph 11.6 kmh 18.1 mph29.1 kmh 30.05 in1017.6 mb 0.00 in0.0 mm 0.00 in0.0 mm 0.00 in0.0 mm
01:21 PM 70.9°F21.6°C 51.3°F10.7°C 50% 6.3 mph NNW10.1 kmh NNW 6.7 mph10.8 kmh 30.05 in1017.6 mb 0.00 in0.0 mm 0.00 in0.0 mm 0.00 in0.0 mm
01:23 PM 70.7°F21.5°C 51.1°F10.6°C 50% 7.2 mph NNW11.6 kmh NNW 13.6 mph21.9 kmh 30.05 in1017.6 mb 0.00 in0.0 mm 0.00 in0.0 mm 0.00 in0.0 mm
01:25 PM 70.5°F21.4°C 52.0°F11.1°C 52% 5.8 mph NNE9.3 kmh NNE 10.1 mph16.3 kmh 30.05 in1017.6 mb 0.00 in0.0 mm 0.00 in0.0 mm 0.00 in0.0 mm
01:27 PM 70.3°F21.3°C 52.3°F11.3°C 53% 4.7 mph NNE7.6 kmh NNE 5.4 mph8.7 kmh 30.05 in1017.6 mb 0.00 in0.0 mm 0.00 in0.0 mm 0.00 in0.0 mm
01:29 PM 70.3°F21.3°C 52.3°F11.3°C 53% 6.7 mph NNW10.8 kmh NNW 13.9 mph22.4 kmh 30.05 in1017.6 mb 0.00 in0.0 mm 0.00 in0.0 mm 0.00 in0.0 mm
01:32 PM 70.2°F21.2°C 52.2°F11.2°C 53% 6.5 mph 10.5 kmh 12.1 mph19.5 kmh 30.05 in1017.6 mb 0.00 in0.0 mm 0.00 in0.0 mm 0.00 in0.0 mm
01:34 PM 70.2°F21.2°C 51.8°F11.0°C 52% 5.4 mph NW8.7 kmh NW 5.1 mph8.2 kmh 30.04 in1017.3 mb 0.00 in0.0 mm 0.00 in0.0 mm 0.00 in0.0 mm
01:36 PM 70.0°F21.1°C 52.0°F11.1°C 53% 4.5 mph NW7.2 kmh NW 11.0 mph17.7 kmh 30.04 in1017.3 mb 0.00 in0.0 mm 0.00 in0.0 mm 0.00 in0.0 mm
01:38 PM 70.0°F21.1°C 52.5°F11.4°C 54% 4.0 mph NNE6.4 kmh NNE 6.7 mph10.8 kmh 30.05 in1017.6 mb 0.00 in0.0 mm 0.00 in0.0 mm 0.00 in0.0 mm
01:40 PM 70.0°F21.1°C 52.5°F11.4°C 54% 4.0 mph 6.4 kmh 8.3 mph13.4 kmh 30.05 in1017.6 mb 0.00 in0.0 mm 0.00 in0.0 mm 0.00 in0.0 mm
01:43 PM 70.0°F21.1°C 52.0°F11.1°C 53% 3.8 mph 6.1 kmh 5.4 mph8.7 kmh 30.05 in1017.6 mb 0.00 in0.0 mm 0.00 in0.0 mm 0.00 in0.0 mm
01:45 PM 70.2°F21.2°C 52.2°F11.2°C 53% 4.3 mph SW6.9 kmh SW 11.9 mph19.2 kmh 30.05 in1017.6 mb 0.00 in0.0 mm 0.00 in0.0 mm 0.00 in0.0 mm
01:47 PM 70.3°F21.3°C 51.4°F10.8°C 51% 6.5 mph NW10.5 kmh NW 15.2 mph24.5 kmh 30.06 in1017.9 mb 0.00 in0.0 mm 0.00 in0.0 mm 0.00 in0.0 mm
01:49 PM 70.3°F21.3°C 50.9°F10.5°C 50% 6.5 mph NNW10.5 kmh NNW 13.4 mph21.6 kmh 30.05 in1017.6 mb 0.00 in0.0 mm 0.00 in0.0 mm 0.00 in0.0 mm
01:51 PM 70.3°F21.3°C 51.8°F11.0°C 52% 6.5 mph NW10.5 kmh NW 11.9 mph19.2 kmh 30.05 in1017.6 mb 0.00 in0.0 mm 0.00 in0.0 mm 0.00 in0.0 mm
01:53 PM 70.2°F21.2°C 51.8°F11.0°C 52% 7.4 mph NW11.9 kmh NW 14.8 mph23.8 kmh 30.05 in1017.6 mb 0.00 in0.0 mm 0.00 in0.0 mm 0.00 in0.0 mm
01:56 PM 70.0°F21.1°C 51.1°F10.6°C 51% 6.9 mph WNW11.1 kmh WNW 10.1 mph16.3 kmh 30.05 in1017.6 mb 0.00 in0.0 mm 0.00 in0.0 mm 0.00 in0.0 mm
01:58 PM 70.0°F21.1°C 51.6°F10.9°C 52% 6.5 mph NE10.5 kmh NE 9.2 mph14.8 kmh 30.05 in1017.6 mb 0.00 in0.0 mm 0.00 in0.0 mm 0.00 in0.0 mm
02:00 PM 70.0°F21.1°C 51.6°F10.9°C 52% 6.3 mph 10.1 kmh 12.3 mph19.8 kmh 30.06 in1017.9 mb 0.00 in0.0 mm 0.00 in0.0 mm 0.00 in0.0 mm
02:02 PM 69.6°F20.9°C 51.8°F11.0°C 53% 7.2 mph ENE11.6 kmh ENE 15.7 mph25.3 kmh 30.06 in1017.9 mb 0.00 in0.0 mm 0.00 in0.0 mm 0.00 in0.0 mm
02:04 PM 69.6°F20.9°C 52.2°F11.2°C 54% 7.2 mph NW11.6 kmh NW 12.5 mph20.1 kmh 30.06 in1017.9 mb 0.00 in0.0 mm 0.00 in0.0 mm 0.00 in0.0 mm
02:06 PM 69.4°F20.8°C 52.2°F11.2°C 54% 8.3 mph NNW13.4 kmh NNW 11.9 mph19.2 kmh 30.06 in1017.9 mb 0.00 in0.0 mm 0.00 in0.0 mm 0.00 in0.0 mm
02:09 PM 69.3°F20.7°C 52.0°F11.1°C 54% 8.7 mph NNW14.0 kmh NNW 13.9 mph22.4 kmh 30.06 in1017.9 mb 0.00 in0.0 mm 0.00 in0.0 mm 0.00 in0.0 mm
02:11 PM 69.1°F20.6°C 51.3°F10.7°C 53% 8.3 mph SSW13.4 kmh SSW 14.1 mph22.7 kmh 30.06 in1017.9 mb 0.00 in0.0 mm 0.00 in0.0 mm 0.00 in0.0 mm
02:13 PM 69.3°F20.7°C 51.4°F10.8°C 53% 7.6 mph 12.2 kmh 13.0 mph20.9 kmh 30.06 in1017.9 mb 0.00 in0.0 mm 0.00 in0.0 mm 0.00 in0.0 mm
02:15 PM 69.4°F20.8°C 52.2°F11.2°C 54% 7.4 mph WSW11.9 kmh WSW 15.7 mph25.3 kmh 30.06 in1017.9 mb 0.00 in0.0 mm 0.00 in0.0 mm 0.00 in0.0 mm
02:18 PM 69.4°F20.8°C 52.5°F11.4°C 55% 8.7 mph NNW14.0 kmh NNW 14.5 mph23.3 kmh 30.06 in1017.9 mb 0.00 in0.0 mm 0.00 in0.0 mm 0.00 in0.0 mm
02:20 PM 69.3°F20.7°C 52.3°F11.3°C 55% 8.5 mph NNW13.7 kmh NNW 18.8 mph30.3 kmh 30.06 in1017.9 mb 0.00 in0.0 mm 0.00 in0.0 mm 0.00 in0.0 mm
02:22 PM 69.1°F20.6°C 52.2°F11.2°C 55% 6.7 mph 10.8 kmh 6.9 mph11.1 kmh 30.05 in1017.6 mb 0.00 in0.0 mm 0.00 in0.0 mm 0.00 in0.0 mm
02:24 PM 68.9°F20.5°C 52.0°F11.1°C 55% 7.4 mph NNE11.9 kmh NNE 12.3 mph19.8 kmh 30.05 in1017.6 mb 0.00 in0.0 mm 0.00 in0.0 mm 0.00 in0.0 mm
02:26 PM 68.9°F20.5°C 51.6°F10.9°C 54% 6.9 mph WNW11.1 kmh WNW 13.0 mph20.9 kmh 30.05 in1017.6 mb 0.00 in0.0 mm 0.00 in0.0 mm 0.00 in0.0 mm
02:29 PM 68.9°F20.5°C 52.0°F11.1°C 55% 5.8 mph NNW9.3 kmh NNW 7.6 mph12.2 kmh 30.05 in1017.6 mb 0.00 in0.0 mm 0.00 in0.0 mm 0.00 in0.0 mm
02:31 PM 69.1°F20.6°C 52.2°F11.2°C 55% 6.3 mph NNW10.1 kmh NNW 8.1 mph13.0 kmh 30.05 in1017.6 mb 0.00 in0.0 mm 0.00 in0.0 mm 0.00 in0.0 mm
02:33 PM 69.3°F20.7°C 52.0°F11.1°C 54% 6.7 mph NW10.8 kmh NW 12.5 mph20.1 kmh 30.06 in1017.9 mb 0.00 in0.0 mm 0.00 in0.0 mm 0.00 in0.0 mm
02:35 PM 69.4°F20.8°C 52.2°F11.2°C 54% 6.0 mph NNE9.7 kmh NNE 9.8 mph15.8 kmh 30.05 in1017.6 mb 0.00 in0.0 mm 0.00 in0.0 mm 0.00 in0.0 mm
02:38 PM 69.6°F20.9°C 51.8°F11.0°C 53% 5.6 mph ESE9.0 kmh ESE 9.4 mph15.1 kmh 30.05 in1017.6 mb 0.00 in0.0 mm 0.00 in0.0 mm 0.00 in0.0 mm
02:40 PM 69.6°F20.9°C 51.8°F11.0°C 53% 6.5 mph S10.5 kmh S 13.4 mph21.6 kmh 30.06 in1017.9 mb 0.00 in0.0 mm 0.00 in0.0 mm 0.00 in0.0 mm
02:42 PM 69.6°F20.9°C 52.2°F11.2°C 54% 6.7 mph NNW10.8 kmh NNW 16.6 mph26.7 kmh 30.06 in1017.9 mb 0.00 in0.0 mm 0.00 in0.0 mm 0.00 in0.0 mm
02:44 PM 69.4°F20.8°C 51.1°F10.6°C 52% 7.8 mph WNW12.6 kmh WNW 17.0 mph27.4 kmh 30.06 in1017.9 mb 0.00 in0.0 mm 0.00 in0.0 mm 0.00 in0.0 mm
02:47 PM 69.6°F20.9°C 51.3°F10.7°C 52% 7.6 mph WNW12.2 kmh WNW 15.7 mph25.3 kmh 30.05 in1017.6 mb 0.00 in0.0 mm 0.00 in0.0 mm 0.00 in0.0 mm
02:49 PM 69.6°F20.9°C 50.7°F10.4°C 51% 8.1 mph WNW13.0 kmh WNW 14.1 mph22.7 kmh 30.05 in1017.6 mb 0.00 in0.0 mm 0.00 in0.0 mm 0.00 in0.0 mm
02:51 PM 69.6°F20.9°C 50.7°F10.4°C 51% 6.9 mph 11.1 kmh 11.9 mph19.2 kmh 30.06 in1017.9 mb 0.00 in0.0 mm 0.00 in0.0 mm 0.00 in0.0 mm
02:53 PM 69.6°F20.9°C 50.7°F10.4°C 51% 7.8 mph NW12.6 kmh NW 17.7 mph28.5 kmh 30.06 in1017.9 mb 0.00 in0.0 mm 0.00 in0.0 mm 0.00 in0.0 mm
02:55 PM 69.6°F20.9°C 51.3°F10.7°C 52% 8.9 mph NNE14.3 kmh NNE 13.2 mph21.2 kmh 30.06 in1017.9 mb 0.00 in0.0 mm 0.00 in0.0 mm 0.00 in0.0 mm
02:58 PM 70.0°F21.1°C 51.6°F10.9°C 52% 8.1 mph SSE13.0 kmh SSE 17.9 mph28.8 kmh 30.06 in1017.9 mb 0.00 in0.0 mm 0.00 in0.0 mm 0.00 in0.0 mm
03:00 PM 70.0°F21.1°C 51.6°F10.9°C 52% 6.7 mph NW10.8 kmh NW 15.0 mph24.1 kmh 30.06 in1017.9 mb 0.00 in0.0 mm 0.00 in0.0 mm 0.00 in0.0 mm
03:02 PM 69.6°F20.9°C 51.8°F11.0°C 53% 6.5 mph NNW10.5 kmh NNW 12.8 mph20.6 kmh 30.06 in1017.9 mb 0.00 in0.0 mm 0.00 in0.0 mm 0.00 in0.0 mm
03:04 PM 70.0°F21.1°C 52.0°F11.1°C 53% 7.4 mph 11.9 kmh 11.6 mph18.7 kmh 30.06 in1017.9 mb 0.00 in0.0 mm 0.00 in0.0 mm 0.00 in0.0 mm
03:06 PM 70.0°F21.1°C 50.5°F10.3°C 50% 8.5 mph NW13.7 kmh NW 13.0 mph20.9 kmh 30.06 in1017.9 mb 0.00 in0.0 mm 0.00 in0.0 mm 0.00 in0.0 mm
03:08 PM 69.8°F21.0°C 50.9°F10.5°C 51% 7.4 mph 11.9 kmh 8.5 mph13.7 kmh 30.06 in1017.9 mb 0.00 in0.0 mm 0.00 in0.0 mm 0.00 in0.0 mm
03:11 PM 70.0°F21.1°C 51.1°F10.6°C 51% 6.7 mph ESE10.8 kmh ESE 13.6 mph21.9 kmh 30.06 in1017.9 mb 0.00 in0.0 mm 0.00 in0.0 mm 0.00 in0.0 mm
03:13 PM 69.8°F21.0°C 50.4°F10.2°C 50% 7.6 mph 12.2 kmh 13.4 mph21.6 kmh 30.06 in1017.9 mb 0.00 in0.0 mm 0.00 in0.0 mm 0.00 in0.0 mm
03:15 PM 69.6°F20.9°C 49.1°F9.5°C 48% 7.6 mph WNW12.2 kmh WNW 20.4 mph32.8 kmh 30.06 in1017.9 mb 0.00 in0.0 mm 0.00 in0.0 mm 0.00 in0.0 mm
03:17 PM 70.0°F21.1°C 50.5°F10.3°C 50% 6.5 mph NNW10.5 kmh NNW 12.8 mph20.6 kmh 30.05 in1017.6 mb 0.00 in0.0 mm 0.00 in0.0 mm 0.00 in0.0 mm
03:20 PM 70.3°F21.3°C 51.4°F10.8°C 51% 5.8 mph NW9.3 kmh NW 8.3 mph13.4 kmh 30.05 in1017.6 mb 0.00 in0.0 mm 0.00 in0.0 mm 0.00 in0.0 mm
03:22 PM 70.3°F21.3°C 50.9°F10.5°C 50% 6.9 mph NNW11.1 kmh NNW 19.5 mph31.4 kmh 30.05 in1017.6 mb 0.00 in0.0 mm 0.00 in0.0 mm 0.00 in0.0 mm
03:24 PM 69.6°F20.9°C 50.2°F10.1°C 50% 8.9 mph 14.3 kmh 21.7 mph34.9 kmh 30.06 in1017.9 mb 0.00 in0.0 mm 0.00 in0.0 mm 0.00 in0.0 mm
03:26 PM 69.6°F20.9°C 49.6°F9.8°C 49% 8.3 mph WNW13.4 kmh WNW 10.5 mph16.9 kmh 30.05 in1017.6 mb 0.00 in0.0 mm 0.00 in0.0 mm 0.00 in0.0 mm
03:29 PM 69.6°F20.9°C 50.2°F10.1°C 50% 8.1 mph 13.0 kmh 13.0 mph20.9 kmh 30.06 in1017.9 mb 0.00 in0.0 mm 0.00 in0.0 mm 0.00 in0.0 mm
03:31 PM 69.6°F20.9°C 50.2°F10.1°C 50% 7.6 mph SSW12.2 kmh SSW 13.0 mph20.9 kmh 30.06 in1017.9 mb 0.00 in0.0 mm 0.00 in0.0 mm 0.00 in0.0 mm
03:33 PM 70.0°F21.1°C 50.5°F10.3°C 50% 6.7 mph NNE10.8 kmh NNE 15.4 mph24.8 kmh 30.06 in1017.9 mb 0.00 in0.0 mm 0.00 in0.0 mm 0.00 in0.0 mm
03:35 PM 69.6°F20.9°C 50.2°F10.1°C 50% 7.8 mph NW12.6 kmh NW 13.6 mph21.9 kmh 30.06 in1017.9 mb 0.00 in0.0 mm 0.00 in0.0 mm 0.00 in0.0 mm
03:37 PM 69.6°F20.9°C 50.2°F10.1°C 50% 7.6 mph NE12.2 kmh NE 12.1 mph19.5 kmh 30.06 in1017.9 mb 0.00 in0.0 mm 0.00 in0.0 mm 0.00 in0.0 mm
03:40 PM 69.6°F20.9°C 49.1°F9.5°C 48% 7.4 mph NNW11.9 kmh NNW 20.1 mph32.3 kmh 30.06 in1017.9 mb 0.00 in0.0 mm 0.00 in0.0 mm 0.00 in0.0 mm
03:42 PM 69.4°F20.8°C 50.0°F10.0°C 50% 7.4 mph NW11.9 kmh NW 11.6 mph18.7 kmh 30.06 in1017.9 mb 0.00 in0.0 mm 0.00 in0.0 mm 0.00 in0.0 mm
03:44 PM 69.1°F20.6°C 50.2°F10.1°C 51% 6.7 mph NW10.8 kmh NW 10.7 mph17.2 kmh 30.06 in1017.9 mb 0.00 in0.0 mm 0.00 in0.0 mm 0.00 in0.0 mm
03:46 PM 69.1°F20.6°C 50.7°F10.4°C 52% 8.1 mph NNE13.0 kmh NNE 14.1 mph22.7 kmh 30.06 in1017.9 mb 0.00 in0.0 mm 0.00 in0.0 mm 0.00 in0.0 mm
03:48 PM 69.3°F20.7°C 49.8°F9.9°C 50% 7.2 mph NNE11.6 kmh NNE 13.2 mph21.2 kmh 30.06 in1017.9 mb 0.00 in0.0 mm 0.00 in0.0 mm 0.00 in0.0 mm
03:50 PM 69.6°F20.9°C 50.2°F10.1°C 50% 6.7 mph NNW10.8 kmh NNW 10.5 mph16.9 kmh 30.06 in1017.9 mb 0.00 in0.0 mm 0.00 in0.0 mm 0.00 in0.0 mm
03:53 PM 69.6°F20.9°C 50.7°F10.4°C 51% 5.4 mph NNW8.7 kmh NNW 6.3 mph10.1 kmh 30.06 in1017.9 mb 0.00 in0.0 mm 0.00 in0.0 mm 0.00 in0.0 mm
03:55 PM 69.6°F20.9°C 50.7°F10.4°C 51% 6.3 mph NNE10.1 kmh NNE 16.8 mph27.0 kmh 30.06 in1017.9 mb 0.00 in0.0 mm 0.00 in0.0 mm 0.00 in0.0 mm
03:57 PM 69.4°F20.8°C 50.5°F10.3°C 51% 6.3 mph 10.1 kmh 10.5 mph16.9 kmh 30.05 in1017.6 mb 0.00 in0.0 mm 0.00 in0.0 mm 0.00 in0.0 mm
03:59 PM 69.6°F20.9°C 51.3°F10.7°C 52% 6.3 mph NW10.1 kmh NW 12.3 mph19.8 kmh 30.06 in1017.9 mb 0.00 in0.0 mm 0.00 in0.0 mm 0.00 in0.0 mm
04:02 PM 69.8°F21.0°C 51.4°F10.8°C 52% 6.3 mph NNE10.1 kmh NNE 10.3 mph16.6 kmh 30.06 in1017.9 mb 0.00 in0.0 mm 0.00 in0.0 mm 0.00 in0.0 mm
04:04 PM 69.6°F20.9°C 50.7°F10.4°C 51% 5.6 mph WNW9.0 kmh WNW 9.8 mph15.8 kmh 30.06 in1017.9 mb 0.00 in0.0 mm 0.00 in0.0 mm 0.00 in0.0 mm
04:06 PM 70.0°F21.1°C 50.0°F10.0°C 49% 6.9 mph NW11.1 kmh NW 11.9 mph19.2 kmh 30.06 in1017.9 mb 0.00 in0.0 mm 0.00 in0.0 mm 0.00 in0.0 mm
04:08 PM 69.6°F20.9°C 49.6°F9.8°C 49% 7.4 mph NNE11.9 kmh NNE 10.7 mph17.2 kmh 30.06 in1017.9 mb 0.00 in0.0 mm 0.00 in0.0 mm 0.00 in0.0 mm
04:10 PM 69.8°F21.0°C 49.8°F9.9°C 49% 7.2 mph NNE11.6 kmh NNE 20.4 mph32.8 kmh 30.06 in1017.9 mb 0.00 in0.0 mm 0.00 in0.0 mm 0.00 in0.0 mm
04:12 PM 69.8°F21.0°C 49.8°F9.9°C 49% 5.8 mph ENE9.3 kmh ENE 15.7 mph25.3 kmh 30.06 in1017.9 mb 0.00 in0.0 mm 0.00 in0.0 mm 0.00 in0.0 mm
04:15 PM 70.0°F21.1°C 50.0°F10.0°C 49% 7.2 mph NW11.6 kmh NW 15.7 mph25.3 kmh 30.06 in1017.9 mb 0.00 in0.0 mm 0.00 in0.0 mm 0.00 in0.0 mm
04:17 PM 69.8°F21.0°C 49.3°F9.6°C 48% 7.2 mph 11.6 kmh 10.5 mph16.9 kmh 30.06 in1017.9 mb 0.00 in0.0 mm 0.00 in0.0 mm 0.00 in0.0 mm
04:19 PM 69.6°F20.9°C 49.1°F9.5°C 48% 6.9 mph WNW11.1 kmh WNW 8.5 mph13.7 kmh 30.06 in1017.9 mb 0.00 in0.0 mm 0.00 in0.0 mm 0.00 in0.0 mm
04:21 PM 69.6°F20.9°C 49.6°F9.8°C 49% 6.7 mph WNW10.8 kmh WNW 13.0 mph20.9 kmh 30.06 in1017.9 mb 0.00 in0.0 mm 0.00 in0.0 mm 0.00 in0.0 mm
04:24 PM 69.4°F20.8°C 48.4°F9.1°C 47% 7.2 mph 11.6 kmh 14.8 mph23.8 kmh 30.06 in1017.9 mb 0.00 in0.0 mm 0.00 in0.0 mm 0.00 in0.0 mm
04:26 PM 69.6°F20.9°C 49.1°F9.5°C 48% 8.1 mph WNW13.0 kmh WNW 12.8 mph20.6 kmh 30.06 in1017.9 mb 0.00 in0.0 mm 0.00 in0.0 mm 0.00 in0.0 mm
04:28 PM 69.6°F20.9°C 49.1°F9.5°C 48% 8.9 mph 14.3 kmh 21.9 mph35.2 kmh 30.06 in1017.9 mb 0.00 in0.0 mm 0.00 in0.0 mm 0.00 in0.0 mm
04:30 PM 69.4°F20.8°C 49.5°F9.7°C 49% 9.6 mph 15.4 kmh 14.5 mph23.3 kmh 30.06 in1017.9 mb 0.00 in0.0 mm 0.00 in0.0 mm 0.00 in0.0 mm
04:33 PM 69.4°F20.8°C 49.5°F9.7°C 49% 9.8 mph NNW15.8 kmh NNW 18.1 mph29.1 kmh 30.06 in1017.9 mb 0.00 in0.0 mm 0.00 in0.0 mm 0.00 in0.0 mm
04:35 PM 69.4°F20.8°C 50.0°F10.0°C 50% 8.5 mph W13.7 kmh W 11.2 mph18.0 kmh 30.06 in1017.9 mb 0.00 in0.0 mm 0.00 in0.0 mm 0.00 in0.0 mm
04:37 PM 69.6°F20.9°C 50.2°F10.1°C 50% 7.4 mph 11.9 kmh 11.0 mph17.7 kmh 30.06 in1017.9 mb 0.00 in0.0 mm 0.00 in0.0 mm 0.00 in0.0 mm
04:39 PM 69.4°F20.8°C 50.0°F10.0°C 50% 7.6 mph NNW12.2 kmh NNW 16.3 mph26.2 kmh 30.06 in1017.9 mb 0.00 in0.0 mm 0.00 in0.0 mm 0.00 in0.0 mm
04:41 PM 69.6°F20.9°C 50.7°F10.4°C 51% 6.9 mph 11.1 kmh 13.6 mph21.9 kmh 30.05 in1017.6 mb 0.00 in0.0 mm 0.00 in0.0 mm 0.00 in0.0 mm
04:44 PM 69.6°F20.9°C 50.7°F10.4°C 51% 6.5 mph SSW10.5 kmh SSW 9.4 mph15.1 kmh 30.06 in1017.9 mb 0.00 in0.0 mm 0.00 in0.0 mm 0.00 in0.0 mm
04:46 PM 69.6°F20.9°C 49.1°F9.5°C 48% 6.7 mph 10.8 kmh 14.3 mph23.0 kmh 30.05 in1017.6 mb 0.00 in0.0 mm 0.00 in0.0 mm 0.00 in0.0 mm
04:48 PM 69.6°F20.9°C 49.1°F9.5°C 48% 6.3 mph NNW10.1 kmh NNW 10.5 mph16.9 kmh 30.05 in1017.6 mb 0.00 in0.0 mm 0.00 in0.0 mm 0.00 in0.0 mm
04:50 PM 69.6°F20.9°C 49.6°F9.8°C 49% 6.5 mph NNW10.5 kmh NNW 11.9 mph19.2 kmh 30.05 in1017.6 mb 0.00 in0.0 mm 0.00 in0.0 mm 0.00 in0.0 mm
04:52 PM 69.6°F20.9°C 49.1°F9.5°C 48% 6.3 mph NNW10.1 kmh NNW 13.0 mph20.9 kmh 30.05 in1017.6 mb 0.00 in0.0 mm 0.00 in0.0 mm 0.00 in0.0 mm
04:55 PM 69.6°F20.9°C 47.8°F8.8°C 46% 6.7 mph 10.8 kmh 11.0 mph17.7 kmh 30.05 in1017.6 mb 0.00 in0.0 mm 0.00 in0.0 mm 0.00 in0.0 mm
04:57 PM 69.4°F20.8°C 48.4°F9.1°C 47% 6.7 mph WNW10.8 kmh WNW 13.4 mph21.6 kmh 30.05 in1017.6 mb 0.00 in0.0 mm 0.00 in0.0 mm 0.00 in0.0 mm
04:59 PM 69.4°F20.8°C 48.4°F9.1°C 47% 6.7 mph WNW10.8 kmh WNW 10.3 mph16.6 kmh 30.05 in1017.6 mb 0.00 in0.0 mm 0.00 in0.0 mm 0.00 in0.0 mm
05:02 PM 69.6°F20.9°C 48.6°F9.2°C 47% 7.8 mph NNW12.6 kmh NNW 13.6 mph21.9 kmh 30.05 in1017.6 mb 0.00 in0.0 mm 0.00 in0.0 mm 0.00 in0.0 mm
05:04 PM 69.4°F20.8°C 48.4°F9.1°C 47% 8.3 mph NNW13.4 kmh NNW 14.5 mph23.3 kmh 30.05 in1017.6 mb 0.00 in0.0 mm 0.00 in0.0 mm 0.00 in0.0 mm
05:06 PM 69.4°F20.8°C 47.8°F8.8°C 46% 7.8 mph 12.6 kmh 15.7 mph25.3 kmh 30.06 in1017.9 mb 0.00 in0.0 mm 0.00 in0.0 mm 0.00 in0.0 mm
05:08 PM 69.3°F20.7°C 48.2°F9.0°C 47% 6.9 mph NW11.1 kmh NW 11.6 mph18.7 kmh 30.05 in1017.6 mb 0.00 in0.0 mm 0.00 in0.0 mm 0.00 in0.0 mm
05:10 PM 69.3°F20.7°C 49.3°F9.6°C 49% 6.3 mph W10.1 kmh W 9.4 mph15.1 kmh 30.05 in1017.6 mb 0.00 in0.0 mm 0.00 in0.0 mm 0.00 in0.0 mm
05:12 PM 69.4°F20.8°C 48.9°F9.4°C 48% 6.9 mph NNW11.1 kmh NNW 10.3 mph16.6 kmh 30.05 in1017.6 mb 0.00 in0.0 mm 0.00 in0.0 mm 0.00 in0.0 mm
05:15 PM 69.4°F20.8°C 48.4°F9.1°C 47% 6.7 mph NW10.8 kmh NW 11.2 mph18.0 kmh 30.05 in1017.6 mb 0.00 in0.0 mm 0.00 in0.0 mm 0.00 in0.0 mm
05:17 PM 69.1°F20.6°C 48.6°F9.2°C 48% 8.3 mph WNW13.4 kmh WNW 14.3 mph23.0 kmh 30.05 in1017.6 mb 0.00 in0.0 mm 0.00 in0.0 mm 0.00 in0.0 mm
05:19 PM 68.9°F20.5°C 48.4°F9.1°C 48% 8.9 mph NNW14.3 kmh NNW 13.0 mph20.9 kmh 30.05 in1017.6 mb 0.00 in0.0 mm 0.00 in0.0 mm 0.00 in0.0 mm
05:21 PM 68.9°F20.5°C 48.9°F9.4°C 49% 7.4 mph NNW11.9 kmh NNW 10.3 mph16.6 kmh 30.05 in1017.6 mb 0.00 in0.0 mm 0.00 in0.0 mm 0.00 in0.0 mm
05:23 PM 68.7°F20.4°C 48.2°F9.0°C 48% 7.2 mph S11.6 kmh S 16.3 mph26.2 kmh 30.06 in1017.9 mb 0.00 in0.0 mm 0.00 in0.0 mm 0.00 in0.0 mm
05:26 PM 68.9°F20.5°C 48.9°F9.4°C 49% 6.0 mph WNW9.7 kmh WNW 12.5 mph20.1 kmh 30.06 in1017.9 mb 0.00 in0.0 mm 0.00 in0.0 mm 0.00 in0.0 mm
05:28 PM 68.9°F20.5°C 48.4°F9.1°C 48% 5.6 mph 9.0 kmh 10.3 mph16.6 kmh 30.06 in1017.9 mb 0.00 in0.0 mm 0.00 in0.0 mm 0.00 in0.0 mm
05:30 PM 68.9°F20.5°C 48.4°F9.1°C 48% 5.4 mph SSW8.7 kmh SSW 8.1 mph13.0 kmh 30.06 in1017.9 mb 0.00 in0.0 mm 0.00 in0.0 mm 0.00 in0.0 mm
05:32 PM 68.9°F20.5°C 48.4°F9.1°C 48% 5.4 mph NNE8.7 kmh NNE 8.5 mph13.7 kmh 30.06 in1017.9 mb 0.00 in0.0 mm 0.00 in0.0 mm 0.00 in0.0 mm
05:35 PM 68.7°F20.4°C 48.7°F9.3°C 49% 5.8 mph NW9.3 kmh NW 13.9 mph22.4 kmh 30.06 in1017.9 mb 0.00 in0.0 mm 0.00 in0.0 mm 0.00 in0.0 mm
05:37 PM 68.7°F20.4°C 48.2°F9.0°C 48% 7.2 mph WNW11.6 kmh WNW 16.1 mph25.9 kmh 30.06 in1017.9 mb 0.00 in0.0 mm 0.00 in0.0 mm 0.00 in0.0 mm
05:39 PM 68.7°F20.4°C 48.7°F9.3°C 49% 6.5 mph NNE10.5 kmh NNE 9.2 mph14.8 kmh 30.06 in1017.9 mb 0.00 in0.0 mm 0.00 in0.0 mm 0.00 in0.0 mm
05:41 PM 68.7°F20.4°C 48.7°F9.3°C 49% 4.7 mph SW7.6 kmh SW 4.3 mph6.9 kmh 30.06 in1017.9 mb 0.00 in0.0 mm 0.00 in0.0 mm 0.00 in0.0 mm
05:44 PM 68.9°F20.5°C 49.5°F9.7°C 50% 5.8 mph 9.3 kmh 10.3 mph16.6 kmh 30.06 in1017.9 mb 0.00 in0.0 mm 0.00 in0.0 mm 0.00 in0.0 mm
05:46 PM 68.7°F20.4°C 49.3°F9.6°C 50% 6.7 mph NNE10.8 kmh NNE 14.5 mph23.3 kmh 30.06 in1017.9 mb 0.00 in0.0 mm 0.00 in0.0 mm 0.00 in0.0 mm
05:48 PM 68.5°F20.3°C 48.6°F9.2°C 49% 7.2 mph 11.6 kmh 14.3 mph23.0 kmh 30.06 in1017.9 mb 0.00 in0.0 mm 0.00 in0.0 mm 0.00 in0.0 mm
05:50 PM 68.7°F20.4°C 48.7°F9.3°C 49% 7.4 mph WNW11.9 kmh WNW 11.2 mph18.0 kmh 30.06 in1017.9 mb 0.00 in0.0 mm 0.00 in0.0 mm 0.00 in0.0 mm
05:53 PM 68.7°F20.4°C 48.7°F9.3°C 49% 8.1 mph 13.0 kmh 14.3 mph23.0 kmh 30.06 in1017.9 mb 0.00 in0.0 mm 0.00 in0.0 mm 0.00 in0.0 mm
05:55 PM 68.7°F20.4°C 49.3°F9.6°C 50% 6.5 mph 10.5 kmh 10.3 mph16.6 kmh 30.06 in1017.9 mb 0.00 in0.0 mm 0.00 in0.0 mm 0.00 in0.0 mm
05:57 PM 68.7°F20.4°C 49.3°F9.6°C 50% 5.8 mph 9.3 kmh 9.6 mph15.4 kmh 30.06 in1017.9 mb 0.00 in0.0 mm 0.00 in0.0 mm 0.00 in0.0 mm
05:59 PM 68.7°F20.4°C 49.3°F9.6°C 50% 6.9 mph WNW11.1 kmh WNW 16.3 mph26.2 kmh 30.06 in1017.9 mb 0.00 in0.0 mm 0.00 in0.0 mm 0.00 in0.0 mm
06:02 PM 68.5°F20.3°C 49.1°F9.5°C 50% 6.9 mph 11.1 kmh 14.3 mph23.0 kmh 30.06 in1017.9 mb 0.00 in0.0 mm 0.00 in0.0 mm 0.00 in0.0 mm
06:04 PM 68.4°F20.2°C 48.9°F9.4°C 50% 7.4 mph 11.9 kmh 13.6 mph21.9 kmh 30.06 in1017.9 mb 0.00 in0.0 mm 0.00 in0.0 mm 0.00 in0.0 mm
06:06 PM 68.2°F20.1°C 48.9°F9.4°C 50% 6.3 mph 10.1 kmh 6.9 mph11.1 kmh 30.06 in1017.9 mb 0.00 in0.0 mm 0.00 in0.0 mm 0.00 in0.0 mm
06:08 PM 68.2°F20.1°C 49.3°F9.6°C 51% 6.7 mph NNE10.8 kmh NNE 10.5 mph16.9 kmh 30.06 in1017.9 mb 0.00 in0.0 mm 0.00 in0.0 mm 0.00 in0.0 mm
06:11 PM 68.2°F20.1°C 49.3°F9.6°C 51% 8.3 mph NW13.4 kmh NW 17.2 mph27.7 kmh 30.06 in1017.9 mb 0.00 in0.0 mm 0.00 in0.0 mm 0.00 in0.0 mm
06:13 PM 67.8°F19.9°C 49.6°F9.8°C 52% 7.4 mph 11.9 kmh 12.1 mph19.5 kmh 30.06 in1017.9 mb 0.00 in0.0 mm 0.00 in0.0 mm 0.00 in0.0 mm
06:15 PM 67.8°F19.9°C 49.6°F9.8°C 52% 5.8 mph WNW9.3 kmh WNW 7.8 mph12.6 kmh 30.06 in1017.9 mb 0.00 in0.0 mm 0.00 in0.0 mm 0.00 in0.0 mm
06:18 PM 67.8°F19.9°C 50.0°F10.0°C 53% 5.4 mph 8.7 kmh 9.2 mph14.8 kmh 30.06 in1017.9 mb 0.00 in0.0 mm 0.00 in0.0 mm 0.00 in0.0 mm
06:20 PM 67.8°F19.9°C 50.0°F10.0°C 53% 4.9 mph NNE7.9 kmh NNE 7.6 mph12.2 kmh 30.06 in1017.9 mb 0.00 in0.0 mm 0.00 in0.0 mm 0.00 in0.0 mm
06:22 PM 67.8°F19.9°C 50.5°F10.3°C 54% 5.1 mph 8.2 kmh 10.3 mph16.6 kmh 30.06 in1017.9 mb 0.00 in0.0 mm 0.00 in0.0 mm 0.00 in0.0 mm
06:24 PM 67.8°F19.9°C 50.5°F10.3°C 54% 6.7 mph ENE10.8 kmh ENE 13.0 mph20.9 kmh 30.06 in1017.9 mb 0.00 in0.0 mm 0.00 in0.0 mm 0.00 in0.0 mm
06:27 PM 67.8°F19.9°C 50.5°F10.3°C 54% 7.8 mph 12.6 kmh 16.8 mph27.0 kmh 30.06 in1017.9 mb 0.00 in0.0 mm 0.00 in0.0 mm 0.00 in0.0 mm
06:29 PM 67.6°F19.8°C 50.4°F10.2°C 54% 9.2 mph NNW14.8 kmh NNW 15.7 mph25.3 kmh 30.06 in1017.9 mb 0.00 in0.0 mm 0.00 in0.0 mm 0.00 in0.0 mm
06:31 PM 67.3°F19.6°C 50.5°F10.3°C 55% 8.9 mph NNW14.3 kmh NNW 14.5 mph23.3 kmh 30.06 in1017.9 mb 0.00 in0.0 mm 0.00 in0.0 mm 0.00 in0.0 mm
06:33 PM 67.3°F19.6°C 50.5°F10.3°C 55% 8.5 mph 13.7 kmh 13.0 mph20.9 kmh 30.06 in1017.9 mb 0.00 in0.0 mm 0.00 in0.0 mm 0.00 in0.0 mm
06:36 PM 67.1°F19.5°C 50.4°F10.2°C 55% 8.7 mph NNE14.0 kmh NNE 14.5 mph23.3 kmh 30.06 in1017.9 mb 0.00 in0.0 mm 0.00 in0.0 mm 0.00 in0.0 mm
06:38 PM 66.9°F19.4°C 50.7°F10.4°C 56% 6.7 mph WNW10.8 kmh WNW 9.8 mph15.8 kmh 30.06 in1017.9 mb 0.00 in0.0 mm 0.00 in0.0 mm 0.00 in0.0 mm
06:40 PM 67.1°F19.5°C 50.9°F10.5°C 56% 5.4 mph NW8.7 kmh NW 8.5 mph13.7 kmh 30.06 in1017.9 mb 0.00 in0.0 mm 0.00 in0.0 mm 0.00 in0.0 mm
06:42 PM 67.3°F19.6°C 51.1°F10.6°C 56% 4.5 mph NW7.2 kmh NW 5.4 mph8.7 kmh 30.06 in1017.9 mb 0.00 in0.0 mm 0.00 in0.0 mm 0.00 in0.0 mm
06:44 PM 67.1°F19.5°C 50.9°F10.5°C 56% 4.9 mph NW7.9 kmh NW 11.6 mph18.7 kmh 30.06 in1017.9 mb 0.00 in0.0 mm 0.00 in0.0 mm 0.00 in0.0 mm
06:46 PM 66.9°F19.4°C 50.7°F10.4°C 56% 4.9 mph NW7.9 kmh NW 10.7 mph17.2 kmh 30.07 in1018.3 mb 0.00 in0.0 mm 0.00 in0.0 mm 0.00 in0.0 mm
06:48 PM 66.9°F19.4°C 50.7°F10.4°C 56% 5.1 mph NE8.2 kmh NE 10.1 mph16.3 kmh 30.06 in1017.9 mb 0.00 in0.0 mm 0.00 in0.0 mm 0.00 in0.0 mm
06:50 PM 66.9°F19.4°C 50.7°F10.4°C 56% 5.8 mph WSW9.3 kmh WSW 10.7 mph17.2 kmh 30.06 in1017.9 mb 0.00 in0.0 mm 0.00 in0.0 mm 0.00 in0.0 mm
06:53 PM 66.9°F19.4°C 50.2°F10.1°C 55% 6.5 mph 10.5 kmh 11.4 mph18.3 kmh 30.06 in1017.9 mb 0.00 in0.0 mm 0.00 in0.0 mm 0.00 in0.0 mm
06:55 PM 66.9°F19.4°C 50.2°F10.1°C 55% 6.5 mph NW10.5 kmh NW 11.6 mph18.7 kmh 30.06 in1017.9 mb 0.00 in0.0 mm 0.00 in0.0 mm 0.00 in0.0 mm
06:57 PM 66.7°F19.3°C 50.0°F10.0°C 55% 6.9 mph NNW11.1 kmh NNW 12.1 mph19.5 kmh 30.06 in1017.9 mb 0.00 in0.0 mm 0.00 in0.0 mm 0.00 in0.0 mm
06:59 PM 66.7°F19.3°C 50.0°F10.0°C 55% 6.3 mph 10.1 kmh 6.7 mph10.8 kmh 30.07 in1018.3 mb 0.00 in0.0 mm 0.00 in0.0 mm 0.00 in0.0 mm
07:02 PM 66.7°F19.3°C 50.0°F10.0°C 55% 4.9 mph NW7.9 kmh NW 5.8 mph9.3 kmh 30.06 in1017.9 mb 0.00 in0.0 mm 0.00 in0.0 mm 0.00 in0.0 mm
07:04 PM 66.7°F19.3°C 50.0°F10.0°C 55% 3.6 mph S5.8 kmh S 4.0 mph6.4 kmh 30.07 in1018.3 mb 0.00 in0.0 mm 0.00 in0.0 mm 0.00 in0.0 mm
07:06 PM 66.7°F19.3°C 50.0°F10.0°C 55% 3.6 mph WNW5.8 kmh WNW 5.1 mph8.2 kmh 30.07 in1018.3 mb 0.00 in0.0 mm 0.00 in0.0 mm 0.00 in0.0 mm
07:08 PM 66.7°F19.3°C 50.0°F10.0°C 55% 3.4 mph W5.5 kmh W 5.4 mph8.7 kmh 30.07 in1018.3 mb 0.00 in0.0 mm 0.00 in0.0 mm 0.00 in0.0 mm
07:11 PM 66.7°F19.3°C 50.5°F10.3°C 56% 2.9 mph W4.7 kmh W 4.7 mph7.6 kmh 30.07 in1018.3 mb 0.00 in0.0 mm 0.00 in0.0 mm 0.00 in0.0 mm
07:13 PM 66.6°F19.2°C 50.4°F10.2°C 56% 3.6 mph W5.8 kmh W 9.4 mph15.1 kmh 30.07 in1018.3 mb 0.00 in0.0 mm 0.00 in0.0 mm 0.00 in0.0 mm
07:15 PM 66.6°F19.2°C 50.4°F10.2°C 56% 4.3 mph NW6.9 kmh NW 7.8 mph12.6 kmh 30.07 in1018.3 mb 0.00 in0.0 mm 0.00 in0.0 mm 0.00 in0.0 mm
07:17 PM 66.4°F19.1°C 50.2°F10.1°C 56% 4.7 mph NW7.6 kmh NW 9.2 mph14.8 kmh 30.07 in1018.3 mb 0.00 in0.0 mm 0.00 in0.0 mm 0.00 in0.0 mm
07:20 PM 66.2°F19.0°C 50.5°F10.3°C 57% 5.4 mph 8.7 kmh 12.1 mph19.5 kmh 30.07 in1018.3 mb 0.00 in0.0 mm 0.00 in0.0 mm 0.00 in0.0 mm
07:22 PM 66.0°F18.9°C 50.4°F10.2°C 57% 4.7 mph NW7.6 kmh NW 6.9 mph11.1 kmh 30.07 in1018.3 mb 0.00 in0.0 mm 0.00 in0.0 mm 0.00 in0.0 mm
07:24 PM 66.0°F18.9°C 50.9°F10.5°C 58% 4.3 mph W6.9 kmh W 6.0 mph9.7 kmh 30.07 in1018.3 mb 0.00 in0.0 mm 0.00 in0.0 mm 0.00 in0.0 mm
07:26 PM 65.8°F18.8°C 50.2°F10.1°C 57% 3.6 mph SSW5.8 kmh SSW 7.8 mph12.6 kmh 30.07 in1018.3 mb 0.00 in0.0 mm 0.00 in0.0 mm 0.00 in0.0 mm
07:28 PM 65.7°F18.7°C 50.5°F10.3°C 58% 4.0 mph NNW6.4 kmh NNW 6.3 mph10.1 kmh 30.07 in1018.3 mb 0.00 in0.0 mm 0.00 in0.0 mm 0.00 in0.0 mm
07:31 PM 65.5°F18.6°C 50.7°F10.4°C 59% 5.6 mph 9.0 kmh 11.6 mph18.7 kmh 30.07 in1018.3 mb 0.00 in0.0 mm 0.00 in0.0 mm 0.00 in0.0 mm
07:33 PM 65.3°F18.5°C 50.5°F10.3°C 59% 5.8 mph 9.3 kmh 9.8 mph15.8 kmh 30.06 in1017.9 mb 0.00 in0.0 mm 0.00 in0.0 mm 0.00 in0.0 mm
07:35 PM 65.1°F18.4°C 50.4°F10.2°C 59% 4.7 mph NW7.6 kmh NW 4.9 mph7.9 kmh 30.06 in1017.9 mb 0.00 in0.0 mm 0.00 in0.0 mm 0.00 in0.0 mm
07:37 PM 65.1°F18.4°C 50.4°F10.2°C 59% 4.3 mph NW6.9 kmh NW 6.0 mph9.7 kmh 30.07 in1018.3 mb 0.00 in0.0 mm 0.00 in0.0 mm 0.00 in0.0 mm
07:39 PM 65.1°F18.4°C 50.4°F10.2°C 59% 3.8 mph WNW6.1 kmh WNW 5.1 mph8.2 kmh 30.06 in1017.9 mb 0.00 in0.0 mm 0.00 in0.0 mm 0.00 in0.0 mm
07:41 PM 65.1°F18.4°C 50.4°F10.2°C 59% 4.5 mph NW7.2 kmh NW 6.3 mph10.1 kmh 30.07 in1018.3 mb 0.00 in0.0 mm 0.00 in0.0 mm 0.00 in0.0 mm
07:43 PM 64.9°F18.3°C 50.2°F10.1°C 59% 4.5 mph WNW7.2 kmh WNW 6.9 mph11.1 kmh 30.07 in1018.3 mb 0.00 in0.0 mm 0.00 in0.0 mm 0.00 in0.0 mm
07:46 PM 64.9°F18.3°C 50.2°F10.1°C 59% 3.8 mph W6.1 kmh W 4.9 mph7.9 kmh 30.07 in1018.3 mb 0.00 in0.0 mm 0.00 in0.0 mm 0.00 in0.0 mm
07:48 PM 64.9°F18.3°C 50.2°F10.1°C 59% 3.6 mph W5.8 kmh W 3.8 mph6.1 kmh 30.06 in1017.9 mb 0.00 in0.0 mm 0.00 in0.0 mm 0.00 in0.0 mm
07:50 PM 64.8°F18.2°C 50.2°F10.1°C 59% 3.4 mph NNW5.5 kmh NNW 5.1 mph8.2 kmh 30.07 in1018.3 mb 0.00 in0.0 mm 0.00 in0.0 mm 0.00 in0.0 mm
07:52 PM 64.6°F18.1°C 50.4°F10.2°C 60% 3.4 mph 5.5 kmh 7.6 mph12.2 kmh 30.07 in1018.3 mb 0.00 in0.0 mm 0.00 in0.0 mm 0.00 in0.0 mm
07:54 PM 64.6°F18.1°C 50.4°F10.2°C 60% 4.0 mph WNW6.4 kmh WNW 9.8 mph15.8 kmh 30.07 in1018.3 mb 0.00 in0.0 mm 0.00 in0.0 mm 0.00 in0.0 mm
07:57 PM 64.4°F18.0°C 50.2°F10.1°C 60% 3.8 mph 6.1 kmh 6.0 mph9.7 kmh 30.07 in1018.3 mb 0.00 in0.0 mm 0.00 in0.0 mm 0.00 in0.0 mm
07:59 PM 64.4°F18.0°C 50.2°F10.1°C 60% 3.6 mph NW5.8 kmh NW 6.9 mph11.1 kmh 30.07 in1018.3 mb 0.00 in0.0 mm 0.00 in0.0 mm 0.00 in0.0 mm
08:01 PM 64.2°F17.9°C 50.0°F10.0°C 60% 4.0 mph WNW6.4 kmh WNW 5.8 mph9.3 kmh 30.07 in1018.3 mb 0.00 in0.0 mm 0.00 in0.0 mm 0.00 in0.0 mm
08:03 PM 64.2°F17.9°C 50.5°F10.3°C 61% 3.8 mph W6.1 kmh W 4.9 mph7.9 kmh 30.07 in1018.3 mb 0.00 in0.0 mm 0.00 in0.0 mm 0.00 in0.0 mm
08:05 PM 64.2°F17.9°C 50.0°F10.0°C 60% 4.0 mph 6.4 kmh 5.4 mph8.7 kmh 30.07 in1018.3 mb 0.00 in0.0 mm 0.00 in0.0 mm 0.00 in0.0 mm
08:07 PM 64.2°F17.9°C 50.0°F10.0°C 60% 4.5 mph WSW7.2 kmh WSW 9.6 mph15.4 kmh 30.07 in1018.3 mb 0.00 in0.0 mm 0.00 in0.0 mm 0.00 in0.0 mm
08:10 PM 64.0°F17.8°C 49.5°F9.7°C 59% 4.0 mph NNW6.4 kmh NNW 9.2 mph14.8 kmh 30.07 in1018.3 mb 0.00 in0.0 mm 0.00 in0.0 mm 0.00 in0.0 mm
08:12 PM 64.0°F17.8°C 49.5°F9.7°C 59% 5.1 mph WNW8.2 kmh WNW 9.4 mph15.1 kmh 30.07 in1018.3 mb 0.00 in0.0 mm 0.00 in0.0 mm 0.00 in0.0 mm
08:14 PM 64.0°F17.8°C 49.5°F9.7°C 59% 4.7 mph 7.6 kmh 6.0 mph9.7 kmh 30.07 in1018.3 mb 0.00 in0.0 mm 0.00 in0.0 mm 0.00 in0.0 mm
08:16 PM 64.0°F17.8°C 49.5°F9.7°C 59% 4.5 mph WSW7.2 kmh WSW 8.7 mph14.0 kmh 30.07 in1018.3 mb 0.00 in0.0 mm 0.00 in0.0 mm 0.00 in0.0 mm
08:18 PM 63.9°F17.7°C 49.6°F9.8°C 60% 4.0 mph NNW6.4 kmh NNW 5.6 mph9.0 kmh 30.07 in1018.3 mb 0.00 in0.0 mm 0.00 in0.0 mm 0.00 in0.0 mm
08:20 PM 63.7°F17.6°C 49.5°F9.7°C 60% 4.3 mph WNW6.9 kmh WNW 7.6 mph12.2 kmh 30.07 in1018.3 mb 0.00 in0.0 mm 0.00 in0.0 mm 0.00 in0.0 mm
08:22 PM 63.7°F17.6°C 49.5°F9.7°C 60% 4.5 mph NW7.2 kmh NW 8.5 mph13.7 kmh 30.08 in1018.6 mb 0.00 in0.0 mm 0.00 in0.0 mm 0.00 in0.0 mm
08:25 PM 63.7°F17.6°C 49.5°F9.7°C 60% 4.3 mph WNW6.9 kmh WNW 4.7 mph7.6 kmh 30.08 in1018.6 mb 0.00 in0.0 mm 0.00 in0.0 mm 0.00 in0.0 mm
08:27 PM 63.5°F17.5°C 49.3°F9.6°C 60% 3.6 mph NW5.8 kmh NW 4.5 mph7.2 kmh 30.08 in1018.6 mb 0.00 in0.0 mm 0.00 in0.0 mm 0.00 in0.0 mm
08:29 PM 63.5°F17.5°C 49.8°F9.9°C 61% 3.1 mph WNW5.0 kmh WNW 4.0 mph6.4 kmh 30.07 in1018.3 mb 0.00 in0.0 mm 0.00 in0.0 mm 0.00 in0.0 mm
08:31 PM 63.5°F17.5°C 49.8°F9.9°C 61% 3.4 mph NNW5.5 kmh NNW 4.9 mph7.9 kmh 30.08 in1018.6 mb 0.00 in0.0 mm 0.00 in0.0 mm 0.00 in0.0 mm
08:33 PM 63.3°F17.4°C 49.6°F9.8°C 61% 3.6 mph WNW5.8 kmh WNW 5.6 mph9.0 kmh 30.08 in1018.6 mb 0.00 in0.0 mm 0.00 in0.0 mm 0.00 in0.0 mm
08:36 PM 63.3°F17.4°C 50.0°F10.0°C 62% 4.3 mph W6.9 kmh W 9.4 mph15.1 kmh 30.08 in1018.6 mb 0.00 in0.0 mm 0.00 in0.0 mm 0.00 in0.0 mm
08:38 PM 63.3°F17.4°C 50.0°F10.0°C 62% 5.6 mph WNW9.0 kmh WNW 10.7 mph17.2 kmh 30.08 in1018.6 mb 0.00 in0.0 mm 0.00 in0.0 mm 0.00 in0.0 mm
08:40 PM 63.3°F17.4°C 50.0°F10.0°C 62% 4.5 mph W7.2 kmh W 10.3 mph16.6 kmh 30.08 in1018.6 mb 0.00 in0.0 mm 0.00 in0.0 mm 0.00 in0.0 mm
08:42 PM 63.3°F17.4°C 50.5°F10.3°C 63% 4.0 mph WNW6.4 kmh WNW 4.9 mph7.9 kmh 30.08 in1018.6 mb 0.00 in0.0 mm 0.00 in0.0 mm 0.00 in0.0 mm
08:44 PM 63.1°F17.3°C 50.4°F10.2°C 63% 4.0 mph NNW6.4 kmh NNW 6.7 mph10.8 kmh 30.08 in1018.6 mb 0.00 in0.0 mm 0.00 in0.0 mm 0.00 in0.0 mm
08:46 PM 63.1°F17.3°C 50.4°F10.2°C 63% 3.4 mph NE5.5 kmh NE 3.8 mph6.1 kmh 30.08 in1018.6 mb 0.00 in0.0 mm 0.00 in0.0 mm 0.00 in0.0 mm
08:48 PM 63.1°F17.3°C 50.7°F10.4°C 64% 3.8 mph NNW6.1 kmh NNW 8.1 mph13.0 kmh 30.08 in1018.6 mb 0.00 in0.0 mm 0.00 in0.0 mm 0.00 in0.0 mm
08:51 PM 63.1°F17.3°C 50.7°F10.4°C 64% 3.8 mph NW6.1 kmh NW 5.8 mph9.3 kmh 30.08 in1018.6 mb 0.00 in0.0 mm 0.00 in0.0 mm 0.00 in0.0 mm
08:53 PM 63.1°F17.3°C 50.7°F10.4°C 64% 3.8 mph WNW6.1 kmh WNW 6.0 mph9.7 kmh 30.09 in1019.0 mb 0.00 in0.0 mm 0.00 in0.0 mm 0.00 in0.0 mm
08:55 PM 63.0°F17.2°C 50.5°F10.3°C 64% 3.1 mph W5.0 kmh W 3.6 mph5.8 kmh 30.09 in1019.0 mb 0.00 in0.0 mm 0.00 in0.0 mm 0.00 in0.0 mm
08:57 PM 63.0°F17.2°C 50.5°F10.3°C 64% 3.8 mph W6.1 kmh W 7.4 mph11.9 kmh 30.09 in1019.0 mb 0.00 in0.0 mm 0.00 in0.0 mm 0.00 in0.0 mm
09:00 PM 63.0°F17.2°C 50.5°F10.3°C 64% 4.0 mph W6.4 kmh W 6.3 mph10.1 kmh 30.09 in1019.0 mb 0.00 in0.0 mm 0.00 in0.0 mm 0.00 in0.0 mm
09:02 PM 63.0°F17.2°C 50.5°F10.3°C 64% 3.8 mph WNW6.1 kmh WNW 7.2 mph11.6 kmh 30.09 in1019.0 mb 0.00 in0.0 mm 0.00 in0.0 mm 0.00 in0.0 mm
09:04 PM 62.8°F17.1°C 50.4°F10.2°C 64% 4.3 mph W6.9 kmh W 6.7 mph10.8 kmh 30.09 in1019.0 mb 0.00 in0.0 mm 0.00 in0.0 mm 0.00 in0.0 mm
09:06 PM 62.8°F17.1°C 50.4°F10.2°C 64% 4.3 mph NW6.9 kmh NW 8.9 mph14.3 kmh 30.09 in1019.0 mb 0.00 in0.0 mm 0.00 in0.0 mm 0.00 in0.0 mm
09:08 PM 62.8°F17.1°C 50.4°F10.2°C 64% 4.7 mph WNW7.6 kmh WNW 9.2 mph14.8 kmh 30.09 in1019.0 mb 0.00 in0.0 mm 0.00 in0.0 mm 0.00 in0.0 mm
09:11 PM 62.8°F17.1°C 50.4°F10.2°C 64% 4.5 mph WNW7.2 kmh WNW 8.1 mph13.0 kmh 30.09 in1019.0 mb 0.00 in0.0 mm 0.00 in0.0 mm 0.00 in0.0 mm
09:13 PM 62.6°F17.0°C 50.7°F10.4°C 65% 4.3 mph WSW6.9 kmh WSW 6.3 mph10.1 kmh 30.09 in1019.0 mb 0.00 in0.0 mm 0.00 in0.0 mm 0.00 in0.0 mm
09:15 PM 62.4°F16.9°C 50.5°F10.3°C 65% 4.3 mph W6.9 kmh W 8.9 mph14.3 kmh 30.10 in1019.3 mb 0.00 in0.0 mm 0.00 in0.0 mm 0.00 in0.0 mm
09:18 PM 62.4°F16.9°C 50.5°F10.3°C 65% 4.0 mph W6.4 kmh W 6.3 mph10.1 kmh 30.10 in1019.3 mb 0.00 in0.0 mm 0.00 in0.0 mm 0.00 in0.0 mm
09:20 PM 62.4°F16.9°C 50.5°F10.3°C 65% 4.0 mph WNW6.4 kmh WNW 8.1 mph13.0 kmh 30.10 in1019.3 mb 0.00 in0.0 mm 0.00 in0.0 mm 0.00 in0.0 mm
09:22 PM 62.4°F16.9°C 50.9°F10.5°C 66% 4.3 mph WSW6.9 kmh WSW 5.8 mph9.3 kmh 30.10 in1019.3 mb 0.00 in0.0 mm 0.00 in0.0 mm 0.00 in0.0 mm
09:24 PM 62.4°F16.9°C 50.9°F10.5°C 66% 4.3 mph WNW6.9 kmh WNW 6.7 mph10.8 kmh 30.10 in1019.3 mb 0.00 in0.0 mm 0.00 in0.0 mm 0.00 in0.0 mm
09:27 PM 62.2°F16.8°C 50.7°F10.4°C 66% 3.6 mph WNW5.8 kmh WNW 4.9 mph7.9 kmh 30.10 in1019.3 mb 0.00 in0.0 mm 0.00 in0.0 mm 0.00 in0.0 mm
09:29 PM 62.2°F16.8°C 50.7°F10.4°C 66% 3.6 mph NW5.8 kmh NW 7.2 mph11.6 kmh 30.10 in1019.3 mb 0.00 in0.0 mm 0.00 in0.0 mm 0.00 in0.0 mm
09:31 PM 62.2°F16.8°C 51.1°F10.6°C 67% 4.3 mph WNW6.9 kmh WNW 8.1 mph13.0 kmh 30.10 in1019.3 mb 0.00 in0.0 mm 0.00 in0.0 mm 0.00 in0.0 mm
09:33 PM 62.2°F16.8°C 51.1°F10.6°C 67% 3.4 mph WNW5.5 kmh WNW 5.4 mph8.7 kmh 30.10 in1019.3 mb 0.00 in0.0 mm 0.00 in0.0 mm 0.00 in0.0 mm
09:36 PM 62.1°F16.7°C 50.9°F10.5°C 67% 4.0 mph WNW6.4 kmh WNW 5.8 mph9.3 kmh 30.10 in1019.3 mb 0.00 in0.0 mm 0.00 in0.0 mm 0.00 in0.0 mm
09:38 PM 61.9°F16.6°C 51.3°F10.7°C 68% 3.6 mph WNW5.8 kmh WNW 5.1 mph8.2 kmh 30.10 in1019.3 mb 0.00 in0.0 mm 0.00 in0.0 mm 0.00 in0.0 mm
09:40 PM 61.9°F16.6°C 50.7°F10.4°C 67% 3.1 mph NNW5.0 kmh NNW 2.9 mph4.7 kmh 30.10 in1019.3 mb 0.00 in0.0 mm 0.00 in0.0 mm 0.00 in0.0 mm
09:42 PM 61.9°F16.6°C 50.7°F10.4°C 67% 3.1 mph W5.0 kmh W 7.2 mph11.6 kmh 30.10 in1019.3 mb 0.00 in0.0 mm 0.00 in0.0 mm 0.00 in0.0 mm
09:44 PM 61.7°F16.5°C 50.7°F10.4°C 67% 3.1 mph W5.0 kmh W 5.6 mph9.0 kmh 30.10 in1019.3 mb 0.00 in0.0 mm 0.00 in0.0 mm 0.00 in0.0 mm
09:47 PM 61.5°F16.4°C 50.9°F10.5°C 68% 2.9 mph NW4.7 kmh NW 4.5 mph7.2 kmh 30.10 in1019.3 mb 0.00 in0.0 mm 0.00 in0.0 mm 0.00 in0.0 mm
09:49 PM 61.5°F16.4°C 50.9°F10.5°C 68% 3.1 mph W5.0 kmh W 7.2 mph11.6 kmh 30.10 in1019.3 mb 0.00 in0.0 mm 0.00 in0.0 mm 0.00 in0.0 mm
09:51 PM 61.5°F16.4°C 50.9°F10.5°C 68% 4.0 mph WNW6.4 kmh WNW 6.9 mph11.1 kmh 30.10 in1019.3 mb 0.00 in0.0 mm 0.00 in0.0 mm 0.00 in0.0 mm
09:53 PM 61.5°F16.4°C 50.9°F10.5°C 68% 3.1 mph WNW5.0 kmh WNW 2.9 mph4.7 kmh 30.10 in1019.3 mb 0.00 in0.0 mm 0.00 in0.0 mm 0.00 in0.0 mm
09:55 PM 61.5°F16.4°C 50.9°F10.5°C 68% 3.6 mph WNW5.8 kmh WNW 5.6 mph9.0 kmh 30.10 in1019.3 mb 0.00 in0.0 mm 0.00 in0.0 mm 0.00 in0.0 mm
09:57 PM 61.5°F16.4°C 51.3°F10.7°C 69% 3.4 mph WNW5.5 kmh WNW 4.9 mph7.9 kmh 30.10 in1019.3 mb 0.00 in0.0 mm 0.00 in0.0 mm 0.00 in0.0 mm
09:59 PM 61.3°F16.3°C 51.1°F10.6°C 69% 3.8 mph WNW6.1 kmh WNW 4.9 mph7.9 kmh 30.10 in1019.3 mb 0.00 in0.0 mm 0.00 in0.0 mm 0.00 in0.0 mm
10:02 PM 61.3°F16.3°C 51.1°F10.6°C 69% 3.4 mph NNW5.5 kmh NNW 5.4 mph8.7 kmh 30.10 in1019.3 mb 0.00 in0.0 mm 0.00 in0.0 mm 0.00 in0.0 mm
10:04 PM 61.3°F16.3°C 51.1°F10.6°C 69% 3.1 mph W5.0 kmh W 6.0 mph9.7 kmh 30.10 in1019.3 mb 0.00 in0.0 mm 0.00 in0.0 mm 0.00 in0.0 mm
10:06 PM 61.3°F16.3°C 51.1°F10.6°C 69% 2.2 mph WNW3.5 kmh WNW 2.2 mph3.5 kmh 30.10 in1019.3 mb 0.00 in0.0 mm 0.00 in0.0 mm 0.00 in0.0 mm
10:08 PM 61.3°F16.3°C 51.1°F10.6°C 69% 2.7 mph W4.3 kmh W 4.3 mph6.9 kmh 30.10 in1019.3 mb 0.00 in0.0 mm 0.00 in0.0 mm 0.00 in0.0 mm
10:10 PM 61.3°F16.3°C 51.1°F10.6°C 69% 3.1 mph WNW5.0 kmh WNW 4.9 mph7.9 kmh 30.10 in1019.3 mb 0.00 in0.0 mm 0.00 in0.0 mm 0.00 in0.0 mm
10:13 PM 61.3°F16.3°C 51.4°F10.8°C 70% 2.7 mph W4.3 kmh W 3.8 mph6.1 kmh 30.10 in1019.3 mb 0.00 in0.0 mm 0.00 in0.0 mm 0.00 in0.0 mm
10:15 PM 61.3°F16.3°C 51.4°F10.8°C 70% 3.1 mph WSW5.0 kmh WSW 6.0 mph9.7 kmh 30.10 in1019.3 mb 0.00 in0.0 mm 0.00 in0.0 mm 0.00 in0.0 mm
10:17 PM 61.2°F16.2°C 51.3°F10.7°C 70% 2.2 mph WSW3.5 kmh WSW 2.0 mph3.2 kmh 30.10 in1019.3 mb 0.00 in0.0 mm 0.00 in0.0 mm 0.00 in0.0 mm
10:19 PM 61.2°F16.2°C 51.3°F10.7°C 70% 2.7 mph WNW4.3 kmh WNW 5.6 mph9.0 kmh 30.10 in1019.3 mb 0.00 in0.0 mm 0.00 in0.0 mm 0.00 in0.0 mm
10:21 PM 61.2°F16.2°C 51.3°F10.7°C 70% 2.0 mph ESE3.2 kmh ESE 4.0 mph6.4 kmh 30.10 in1019.3 mb 0.00 in0.0 mm 0.00 in0.0 mm 0.00 in0.0 mm
10:23 PM 61.2°F16.2°C 51.3°F10.7°C 70% 2.0 mph WNW3.2 kmh WNW 3.1 mph5.0 kmh 30.10 in1019.3 mb 0.00 in0.0 mm 0.00 in0.0 mm 0.00 in0.0 mm
10:25 PM 61.2°F16.2°C 51.6°F10.9°C 71% 3.1 mph WNW5.0 kmh WNW 6.0 mph9.7 kmh 30.10 in1019.3 mb 0.00 in0.0 mm 0.00 in0.0 mm 0.00 in0.0 mm
10:28 PM 61.0°F16.1°C 51.1°F10.6°C 70% 3.1 mph NW5.0 kmh NW 5.1 mph8.2 kmh 30.10 in1019.3 mb 0.00 in0.0 mm 0.00 in0.0 mm 0.00 in0.0 mm
10:30 PM 61.0°F16.1°C 51.4°F10.8°C 71% 3.1 mph WSW5.0 kmh WSW 6.0 mph9.7 kmh 30.10 in1019.3 mb 0.00 in0.0 mm 0.00 in0.0 mm 0.00 in0.0 mm
10:32 PM 61.0°F16.1°C 51.1°F10.6°C 70% 2.2 mph WSW3.5 kmh WSW 4.3 mph6.9 kmh 30.10 in1019.3 mb 0.00 in0.0 mm 0.00 in0.0 mm 0.00 in0.0 mm
10:34 PM 61.0°F16.1°C 51.4°F10.8°C 71% 2.5 mph WNW4.0 kmh WNW 4.5 mph7.2 kmh 30.11 in1019.6 mb 0.00 in0.0 mm 0.00 in0.0 mm 0.00 in0.0 mm
10:37 PM 61.0°F16.1°C 51.4°F10.8°C 71% 2.2 mph W3.5 kmh W 4.0 mph6.4 kmh 30.11 in1019.6 mb 0.00 in0.0 mm 0.00 in0.0 mm 0.00 in0.0 mm
10:39 PM 61.0°F16.1°C 51.4°F10.8°C 71% 2.7 mph SSW4.3 kmh SSW 6.7 mph10.8 kmh 30.11 in1019.6 mb 0.00 in0.0 mm 0.00 in0.0 mm 0.00 in0.0 mm
10:41 PM 61.0°F16.1°C 51.4°F10.8°C 71% 2.7 mph W4.3 kmh W 4.7 mph7.6 kmh 30.10 in1019.3 mb 0.00 in0.0 mm 0.00 in0.0 mm 0.00 in0.0 mm
10:43 PM 60.8°F16.0°C 51.8°F11.0°C 72% 3.4 mph NNW5.5 kmh NNW 6.9 mph11.1 kmh 30.10 in1019.3 mb 0.00 in0.0 mm 0.00 in0.0 mm 0.00 in0.0 mm
10:45 PM 60.6°F15.9°C 51.6°F10.9°C 72% 4.0 mph W6.4 kmh W 8.3 mph13.4 kmh 30.10 in1019.3 mb 0.00 in0.0 mm 0.00 in0.0 mm 0.00 in0.0 mm
10:47 PM 60.6°F15.9°C 51.6°F10.9°C 72% 4.0 mph WNW6.4 kmh WNW 8.3 mph13.4 kmh 30.10 in1019.3 mb 0.00 in0.0 mm 0.00 in0.0 mm 0.00 in0.0 mm
10:49 PM 60.6°F15.9°C 51.6°F10.9°C 72% 3.4 mph WNW5.5 kmh WNW 2.9 mph4.7 kmh 30.10 in1019.3 mb 0.00 in0.0 mm 0.00 in0.0 mm 0.00 in0.0 mm
10:52 PM 60.6°F15.9°C 51.6°F10.9°C 72% 2.5 mph NNW4.0 kmh NNW 2.5 mph4.0 kmh 30.10 in1019.3 mb 0.00 in0.0 mm 0.00 in0.0 mm 0.00 in0.0 mm
10:54 PM 60.6°F15.9°C 51.6°F10.9°C 72% 2.0 mph W3.2 kmh W 3.4 mph5.5 kmh 30.10 in1019.3 mb 0.00 in0.0 mm 0.00 in0.0 mm 0.00 in0.0 mm
10:56 PM 60.6°F15.9°C 51.6°F10.9°C 72% 3.4 mph NNW5.5 kmh NNW 6.7 mph10.8 kmh 30.10 in1019.3 mb 0.00 in0.0 mm 0.00 in0.0 mm 0.00 in0.0 mm
10:58 PM 60.6°F15.9°C 51.6°F10.9°C 72% 4.3 mph W6.9 kmh W 6.3 mph10.1 kmh 30.10 in1019.3 mb 0.00 in0.0 mm 0.00 in0.0 mm 0.00 in0.0 mm
11:01 PM 60.6°F15.9°C 52.0°F11.1°C 73% 3.1 mph WNW5.0 kmh WNW 3.4 mph5.5 kmh 30.10 in1019.3 mb 0.00 in0.0 mm 0.00 in0.0 mm 0.00 in0.0 mm
11:03 PM 60.6°F15.9°C 52.0°F11.1°C 73% 2.7 mph NNW4.3 kmh NNW 4.5 mph7.2 kmh 30.10 in1019.3 mb 0.00 in0.0 mm 0.00 in0.0 mm 0.00 in0.0 mm
11:05 PM 60.6°F15.9°C 52.0°F11.1°C 73% 2.9 mph WNW4.7 kmh WNW 5.1 mph8.2 kmh 30.10 in1019.3 mb 0.00 in0.0 mm 0.00 in0.0 mm 0.00 in0.0 mm
11:07 PM 60.6°F15.9°C 52.0°F11.1°C 73% 2.7 mph WNW4.3 kmh WNW 5.1 mph8.2 kmh 30.10 in1019.3 mb 0.00 in0.0 mm 0.00 in0.0 mm 0.00 in0.0 mm
11:10 PM 60.6°F15.9°C 52.0°F11.1°C 73% 2.7 mph W4.3 kmh W 4.5 mph7.2 kmh 30.10 in1019.3 mb 0.00 in0.0 mm 0.00 in0.0 mm 0.00 in0.0 mm
11:12 PM 60.6°F15.9°C 52.0°F11.1°C 73% 2.7 mph W4.3 kmh W 4.5 mph7.2 kmh 30.10 in1019.3 mb 0.00 in0.0 mm 0.00 in0.0 mm 0.00 in0.0 mm
11:14 PM 60.6°F15.9°C 52.0°F11.1°C 73% 2.2 mph WNW3.5 kmh WNW 4.3 mph6.9 kmh 30.10 in1019.3 mb 0.00 in0.0 mm 0.00 in0.0 mm 0.00 in0.0 mm
11:16 PM 60.6°F15.9°C 52.0°F11.1°C 73% 2.2 mph WNW3.5 kmh WNW 4.5 mph7.2 kmh 30.10 in1019.3 mb 0.00 in0.0 mm 0.00 in0.0 mm 0.00 in0.0 mm
11:19 PM 60.6°F15.9°C 52.0°F11.1°C 73% 2.0 mph W3.2 kmh W 3.6 mph5.8 kmh 30.10 in1019.3 mb 0.00 in0.0 mm 0.00 in0.0 mm 0.00 in0.0 mm
11:21 PM 60.6°F15.9°C 52.0°F11.1°C 73% 2.0 mph WNW3.2 kmh WNW 4.0 mph6.4 kmh 30.10 in1019.3 mb 0.00 in0.0 mm 0.00 in0.0 mm 0.00 in0.0 mm
11:23 PM 60.6°F15.9°C 52.0°F11.1°C 73% 2.0 mph W3.2 kmh W 3.8 mph6.1 kmh 30.10 in1019.3 mb 0.00 in0.0 mm 0.00 in0.0 mm 0.00 in0.0 mm
11:25 PM 60.6°F15.9°C 52.3°F11.3°C 74% 1.8 mph WNW2.9 kmh WNW 3.8 mph6.1 kmh 30.10 in1019.3 mb 0.00 in0.0 mm 0.00 in0.0 mm 0.00 in0.0 mm
11:28 PM 60.6°F15.9°C 52.3°F11.3°C 74% 2.5 mph NW4.0 kmh NW 4.3 mph6.9 kmh 30.10 in1019.3 mb 0.00 in0.0 mm 0.00 in0.0 mm 0.00 in0.0 mm
11:30 PM 60.6°F15.9°C 52.3°F11.3°C 74% 1.8 mph W2.9 kmh W 2.2 mph3.5 kmh 30.10 in1019.3 mb 0.00 in0.0 mm 0.00 in0.0 mm 0.00 in0.0 mm
11:32 PM 60.6°F15.9°C 52.3°F11.3°C 74% 3.1 mph WNW5.0 kmh WNW 5.1 mph8.2 kmh 30.09 in1019.0 mb 0.00 in0.0 mm 0.00 in0.0 mm 0.00 in0.0 mm
11:34 PM 60.6°F15.9°C 52.3°F11.3°C 74% 2.7 mph WNW4.3 kmh WNW 5.1 mph8.2 kmh 30.09 in1019.0 mb 0.00 in0.0 mm 0.00 in0.0 mm 0.00 in0.0 mm
11:36 PM 60.6°F15.9°C 52.3°F11.3°C 74% 2.9 mph WNW4.7 kmh WNW 5.6 mph9.0 kmh 30.09 in1019.0 mb 0.00 in0.0 mm 0.00 in0.0 mm 0.00 in0.0 mm
11:39 PM 60.6°F15.9°C 52.7°F11.5°C 75% 3.8 mph NW6.1 kmh NW 8.9 mph14.3 kmh 30.09 in1019.0 mb 0.00 in0.0 mm 0.00 in0.0 mm 0.00 in0.0 mm
11:41 PM 60.6°F15.9°C 52.7°F11.5°C 75% 4.0 mph W6.4 kmh W 8.1 mph13.0 kmh 30.09 in1019.0 mb 0.00 in0.0 mm 0.00 in0.0 mm 0.00 in0.0 mm
11:43 PM 60.6°F15.9°C 52.7°F11.5°C 75% 3.8 mph WNW6.1 kmh WNW 5.4 mph8.7 kmh 30.09 in1019.0 mb 0.00 in0.0 mm 0.00 in0.0 mm 0.00 in0.0 mm
11:45 PM 60.6°F15.9°C 52.7°F11.5°C 75% 3.6 mph SSW5.8 kmh SSW 4.9 mph7.9 kmh 30.09 in1019.0 mb 0.00 in0.0 mm 0.00 in0.0 mm 0.00 in0.0 mm
11:47 PM 60.6°F15.9°C 52.7°F11.5°C 75% 3.8 mph NNW6.1 kmh NNW 7.2 mph11.6 kmh 30.09 in1019.0 mb 0.00 in0.0 mm 0.00 in0.0 mm 0.00 in0.0 mm
11:49 PM 60.6°F15.9°C 52.7°F11.5°C 75% 3.4 mph WNW5.5 kmh WNW 4.3 mph6.9 kmh 30.09 in1019.0 mb 0.00 in0.0 mm 0.00 in0.0 mm 0.00 in0.0 mm
11:51 PM 60.6°F15.9°C 52.7°F11.5°C 75% 3.4 mph WNW5.5 kmh WNW 6.3 mph10.1 kmh 30.09 in1019.0 mb 0.00 in0.0 mm 0.00 in0.0 mm 0.00 in0.0 mm
11:54 PM 60.6°F15.9°C 52.7°F11.5°C 75% 3.8 mph W6.1 kmh W 6.0 mph9.7 kmh 30.09 in1019.0 mb 0.00 in0.0 mm 0.00 in0.0 mm 0.00 in0.0 mm
11:56 PM 60.6°F15.9°C 53.1°F11.7°C 76% 4.0 mph NW6.4 kmh NW 6.0 mph9.7 kmh 30.08 in1018.6 mb 0.00 in0.0 mm 0.00 in0.0 mm 0.00 in0.0 mm
11:58 PM 60.6°F15.9°C 53.1°F11.7°C 76% 3.6 mph W5.8 kmh W 3.8 mph6.1 kmh 30.09 in1019.0 mb 0.00 in0.0 mm 0.00 in0.0 mm 0.00 in0.0 mm